<?xml version="1.0" encoding="UTF-8" standalone="no" ?>
<gpx xmlns="http://www.topografix.com/GPX/1/1" xmlns:xsi="http://www.w3.org/2001/XMLSchema-instance" xsi:schemaLocation="http://www.topografix.com/GPX/1/1 http://www.topografix.com/GPX/1/1/gpx.xsd" version="1.1" creator="VisuGPX - https://www.visugpx.com">
  <metadata>
    <name>LaTroche A-R</name>
    <desc><![CDATA[Boucle direction l'ancienne carrière de grès de la Troche (petit spot d'escalade de la vallée).]]></desc>
  </metadata>
  <trk>
    <name><![CDATA[06-JUIN-20 06:01:12 PM]]></name>
    <trkseg>
      <trkpt lat="48.68738" lon="2.18068">
        <ele>150</ele>
      </trkpt>
      <trkpt lat="48.68743" lon="2.18064">
        <ele>150</ele>
      </trkpt>
      <trkpt lat="48.68751" lon="2.18062">
        <ele>147.2</ele>
      </trkpt>
      <trkpt lat="48.68757" lon="2.18058">
        <ele>146.9</ele>
      </trkpt>
      <trkpt lat="48.68765" lon="2.1806">
        <ele>146.7</ele>
      </trkpt>
      <trkpt lat="48.68771" lon="2.18063">
        <ele>146.4</ele>
      </trkpt>
      <trkpt lat="48.68777" lon="2.18064">
        <ele>146</ele>
      </trkpt>
      <trkpt lat="48.68782" lon="2.18066">
        <ele>145.7</ele>
      </trkpt>
      <trkpt lat="48.6879" lon="2.18069">
        <ele>145</ele>
      </trkpt>
      <trkpt lat="48.68795" lon="2.18076">
        <ele>144.5</ele>
      </trkpt>
      <trkpt lat="48.68797" lon="2.18086">
        <ele>141.8</ele>
      </trkpt>
      <trkpt lat="48.68801" lon="2.18095">
        <ele>141.4</ele>
      </trkpt>
      <trkpt lat="48.68804" lon="2.18106">
        <ele>141.1</ele>
      </trkpt>
      <trkpt lat="48.68809" lon="2.18132">
        <ele>140</ele>
      </trkpt>
      <trkpt lat="48.68815" lon="2.18134">
        <ele>139.4</ele>
      </trkpt>
      <trkpt lat="48.68821" lon="2.18123">
        <ele>139.6</ele>
      </trkpt>
      <trkpt lat="48.6883" lon="2.18113">
        <ele>139.5</ele>
      </trkpt>
      <trkpt lat="48.68841" lon="2.18105">
        <ele>142.41</ele>
        <time>2020-06-06T14:19:22Z</time>
      </trkpt>
      <trkpt lat="48.68853" lon="2.18091">
        <ele>140.49</ele>
        <time>2020-06-06T14:19:27Z</time>
      </trkpt>
      <trkpt lat="48.68869" lon="2.18073">
        <ele>139.05</ele>
        <time>2020-06-06T14:19:33Z</time>
      </trkpt>
      <trkpt lat="48.68891" lon="2.18068">
        <ele>135.68</ele>
        <time>2020-06-06T14:19:42Z</time>
      </trkpt>
      <trkpt lat="48.68905" lon="2.18071">
        <ele>134.72</ele>
        <time>2020-06-06T14:19:53Z</time>
      </trkpt>
      <trkpt lat="48.68915" lon="2.18069">
        <ele>134.72</ele>
        <time>2020-06-06T14:19:57Z</time>
      </trkpt>
      <trkpt lat="48.68953" lon="2.18059">
        <ele>134.24</ele>
        <time>2020-06-06T14:20:08Z</time>
      </trkpt>
      <trkpt lat="48.6899" lon="2.18038">
        <ele>132.8</ele>
        <time>2020-06-06T14:20:18Z</time>
      </trkpt>
      <trkpt lat="48.69008" lon="2.18033">
        <ele>131.84</ele>
        <time>2020-06-06T14:20:24Z</time>
      </trkpt>
      <trkpt lat="48.69011" lon="2.18032">
        <ele>131.84</ele>
        <time>2020-06-06T14:20:25Z</time>
      </trkpt>
      <trkpt lat="48.69014" lon="2.18031">
        <ele>131.36</ele>
        <time>2020-06-06T14:20:26Z</time>
      </trkpt>
      <trkpt lat="48.69016" lon="2.18031">
        <ele>131.84</ele>
        <time>2020-06-06T14:20:27Z</time>
      </trkpt>
      <trkpt lat="48.69019" lon="2.18029">
        <ele>131.36</ele>
        <time>2020-06-06T14:20:28Z</time>
      </trkpt>
      <trkpt lat="48.69022" lon="2.18027">
        <ele>131.36</ele>
        <time>2020-06-06T14:20:29Z</time>
      </trkpt>
      <trkpt lat="48.69024" lon="2.18026">
        <ele>131.84</ele>
        <time>2020-06-06T14:20:30Z</time>
      </trkpt>
      <trkpt lat="48.69057" lon="2.18002">
        <ele>130.88</ele>
        <time>2020-06-06T14:20:42Z</time>
      </trkpt>
      <trkpt lat="48.6908" lon="2.17987">
        <ele>128.47</ele>
        <time>2020-06-06T14:20:53Z</time>
      </trkpt>
      <trkpt lat="48.69101" lon="2.17972">
        <ele>120.1</ele>
      </trkpt>
      <trkpt lat="48.69113" lon="2.17976">
        <ele>119.5</ele>
      </trkpt>
      <trkpt lat="48.69128" lon="2.17979">
        <ele>118.8</ele>
      </trkpt>
      <trkpt lat="48.6914" lon="2.17983">
        <ele>118.1</ele>
      </trkpt>
      <trkpt lat="48.69152" lon="2.17983">
        <ele>117.4</ele>
      </trkpt>
      <trkpt lat="48.69163" lon="2.17988">
        <ele>116.5</ele>
      </trkpt>
      <trkpt lat="48.69167" lon="2.17999">
        <ele>114.8</ele>
      </trkpt>
      <trkpt lat="48.6917" lon="2.18013">
        <ele>112.2</ele>
      </trkpt>
      <trkpt lat="48.69171" lon="2.18022">
        <ele>111.1</ele>
      </trkpt>
      <trkpt lat="48.69173" lon="2.18034">
        <ele>110.1</ele>
      </trkpt>
      <trkpt lat="48.69173" lon="2.1805">
        <ele>109.5</ele>
      </trkpt>
      <trkpt lat="48.69173" lon="2.18065">
        <ele>109.6</ele>
      </trkpt>
      <trkpt lat="48.69174" lon="2.18077">
        <ele>110.1</ele>
      </trkpt>
      <trkpt lat="48.69175" lon="2.18085">
        <ele>109</ele>
      </trkpt>
      <trkpt lat="48.69175" lon="2.18096">
        <ele>107.8</ele>
      </trkpt>
      <trkpt lat="48.69176" lon="2.18103">
        <ele>107</ele>
      </trkpt>
      <trkpt lat="48.69178" lon="2.1811">
        <ele>106.2</ele>
      </trkpt>
      <trkpt lat="48.69203" lon="2.18136">
        <ele>105.4</ele>
        <time>2020-06-06T14:22:13Z</time>
      </trkpt>
      <trkpt lat="48.69207" lon="2.18141">
        <ele>105.88</ele>
        <time>2020-06-06T14:22:14Z</time>
      </trkpt>
      <trkpt lat="48.69209" lon="2.18144">
        <ele>105.4</ele>
        <time>2020-06-06T14:22:15Z</time>
      </trkpt>
      <trkpt lat="48.69229" lon="2.18188">
        <ele>107.32</ele>
        <time>2020-06-06T14:22:25Z</time>
      </trkpt>
      <trkpt lat="48.6923" lon="2.18191">
        <ele>107.32</ele>
        <time>2020-06-06T14:22:26Z</time>
      </trkpt>
      <trkpt lat="48.69239" lon="2.1822">
        <ele>110.69</ele>
        <time>2020-06-06T14:22:37Z</time>
      </trkpt>
      <trkpt lat="48.69241" lon="2.18261">
        <ele>114.05</ele>
        <time>2020-06-06T14:22:50Z</time>
      </trkpt>
      <trkpt lat="48.69244" lon="2.18295">
        <ele>117.42</ele>
        <time>2020-06-06T14:23:04Z</time>
      </trkpt>
      <trkpt lat="48.6925" lon="2.18332">
        <ele>120.3</ele>
        <time>2020-06-06T14:23:20Z</time>
      </trkpt>
      <trkpt lat="48.69254" lon="2.1836">
        <ele>123.67</ele>
        <time>2020-06-06T14:23:36Z</time>
      </trkpt>
      <trkpt lat="48.69259" lon="2.1838">
        <ele>126.55</ele>
        <time>2020-06-06T14:23:47Z</time>
      </trkpt>
      <trkpt lat="48.69268" lon="2.18402">
        <ele>127.51</ele>
        <time>2020-06-06T14:23:56Z</time>
      </trkpt>
      <trkpt lat="48.69279" lon="2.18408">
        <ele>124.15</ele>
        <time>2020-06-06T14:24:04Z</time>
      </trkpt>
      <trkpt lat="48.69281" lon="2.18408">
        <ele>123.67</ele>
        <time>2020-06-06T14:24:06Z</time>
      </trkpt>
      <trkpt lat="48.69286" lon="2.18413">
        <ele>121.26</ele>
        <time>2020-06-06T14:24:10Z</time>
      </trkpt>
      <trkpt lat="48.69286" lon="2.18415">
        <ele>121.26</ele>
        <time>2020-06-06T14:24:11Z</time>
      </trkpt>
      <trkpt lat="48.69287" lon="2.1842">
        <ele>121.26</ele>
        <time>2020-06-06T14:24:12Z</time>
      </trkpt>
      <trkpt lat="48.69288" lon="2.18429">
        <ele>119.82</ele>
        <time>2020-06-06T14:24:15Z</time>
      </trkpt>
      <trkpt lat="48.69295" lon="2.18449">
        <ele>121.26</ele>
        <time>2020-06-06T14:24:24Z</time>
      </trkpt>
      <trkpt lat="48.69295" lon="2.18464">
        <ele>121.26</ele>
        <time>2020-06-06T14:24:35Z</time>
      </trkpt>
      <trkpt lat="48.69294" lon="2.18466">
        <ele>121.26</ele>
        <time>2020-06-06T14:24:36Z</time>
      </trkpt>
      <trkpt lat="48.69295" lon="2.18469">
        <ele>122.22</ele>
        <time>2020-06-06T14:24:37Z</time>
      </trkpt>
      <trkpt lat="48.69295" lon="2.18472">
        <ele>121.26</ele>
        <time>2020-06-06T14:24:38Z</time>
      </trkpt>
      <trkpt lat="48.69294" lon="2.18474">
        <ele>121.74</ele>
        <time>2020-06-06T14:24:39Z</time>
      </trkpt>
      <trkpt lat="48.69293" lon="2.18476">
        <ele>121.74</ele>
        <time>2020-06-06T14:24:40Z</time>
      </trkpt>
      <trkpt lat="48.69292" lon="2.18478">
        <ele>122.22</ele>
        <time>2020-06-06T14:24:41Z</time>
      </trkpt>
      <trkpt lat="48.69289" lon="2.18522">
        <ele>120.3</ele>
        <time>2020-06-06T14:24:55Z</time>
      </trkpt>
      <trkpt lat="48.6929" lon="2.18578">
        <ele>119.82</ele>
        <time>2020-06-06T14:25:09Z</time>
      </trkpt>
      <trkpt lat="48.69297" lon="2.18616">
        <ele>120.78</ele>
        <time>2020-06-06T14:25:21Z</time>
      </trkpt>
      <trkpt lat="48.69308" lon="2.18681">
        <ele>121.26</ele>
        <time>2020-06-06T14:25:38Z</time>
      </trkpt>
      <trkpt lat="48.69309" lon="2.18703">
        <ele>122.71</ele>
        <time>2020-06-06T14:25:45Z</time>
      </trkpt>
      <trkpt lat="48.6931" lon="2.18735">
        <ele>123.19</ele>
        <time>2020-06-06T14:25:56Z</time>
      </trkpt>
      <trkpt lat="48.69309" lon="2.18749">
        <ele>123.19</ele>
        <time>2020-06-06T14:26:01Z</time>
      </trkpt>
      <trkpt lat="48.6931" lon="2.18754">
        <ele>123.19</ele>
        <time>2020-06-06T14:26:02Z</time>
      </trkpt>
      <trkpt lat="48.69311" lon="2.18759">
        <ele>122.71</ele>
        <time>2020-06-06T14:26:03Z</time>
      </trkpt>
      <trkpt lat="48.69325" lon="2.18804">
        <ele>123.19</ele>
        <time>2020-06-06T14:26:19Z</time>
      </trkpt>
      <trkpt lat="48.69336" lon="2.18826">
        <ele>121.74</ele>
        <time>2020-06-06T14:26:29Z</time>
      </trkpt>
      <trkpt lat="48.69337" lon="2.1883">
        <ele>120.78</ele>
        <time>2020-06-06T14:26:30Z</time>
      </trkpt>
      <trkpt lat="48.69356" lon="2.18903">
        <ele>121.26</ele>
        <time>2020-06-06T14:26:42Z</time>
      </trkpt>
      <trkpt lat="48.69356" lon="2.18915">
        <ele>120.78</ele>
        <time>2020-06-06T14:26:45Z</time>
      </trkpt>
      <trkpt lat="48.69356" lon="2.18918">
        <ele>120.3</ele>
        <time>2020-06-06T14:26:46Z</time>
      </trkpt>
      <trkpt lat="48.69356" lon="2.18921">
        <ele>120.3</ele>
        <time>2020-06-06T14:26:47Z</time>
      </trkpt>
      <trkpt lat="48.69363" lon="2.18954">
        <ele>117.42</ele>
        <time>2020-06-06T14:27:00Z</time>
      </trkpt>
      <trkpt lat="48.69368" lon="2.18971">
        <ele>115.98</ele>
        <time>2020-06-06T14:27:05Z</time>
      </trkpt>
      <trkpt lat="48.69383" lon="2.19014">
        <ele>115.5</ele>
        <time>2020-06-06T14:27:22Z</time>
      </trkpt>
      <trkpt lat="48.69392" lon="2.19047">
        <ele>116.46</ele>
        <time>2020-06-06T14:27:46Z</time>
      </trkpt>
      <trkpt lat="48.69392" lon="2.19049">
        <ele>116.46</ele>
        <time>2020-06-06T14:27:47Z</time>
      </trkpt>
      <trkpt lat="48.69393" lon="2.19063">
        <ele>115.5</ele>
        <time>2020-06-06T14:27:58Z</time>
      </trkpt>
      <trkpt lat="48.69398" lon="2.19059">
        <ele>110.4</ele>
      </trkpt>
      <trkpt lat="48.69395" lon="2.19066">
        <ele>115.01</ele>
        <time>2020-06-06T14:28:00Z</time>
      </trkpt>
      <trkpt lat="48.69405" lon="2.19065">
        <ele>113.09</ele>
        <time>2020-06-06T14:28:06Z</time>
      </trkpt>
      <trkpt lat="48.69404" lon="2.19088">
        <ele>108.9</ele>
      </trkpt>
      <trkpt lat="48.69421" lon="2.19109">
        <ele>104</ele>
      </trkpt>
      <trkpt lat="48.69459" lon="2.19127">
        <ele>109.73</ele>
        <time>2020-06-06T14:28:30Z</time>
      </trkpt>
      <trkpt lat="48.69474" lon="2.19162">
        <ele>100</ele>
      </trkpt>
      <trkpt lat="48.69485" lon="2.19184">
        <ele>99.3</ele>
      </trkpt>
      <trkpt lat="48.695" lon="2.19194">
        <ele>94.8</ele>
      </trkpt>
      <trkpt lat="48.69523" lon="2.19201">
        <ele>94.3</ele>
      </trkpt>
      <trkpt lat="48.69568" lon="2.19206">
        <ele>93</ele>
      </trkpt>
      <trkpt lat="48.69584" lon="2.19204">
        <ele>103</ele>
        <time>2020-06-06T14:29:11Z</time>
      </trkpt>
      <trkpt lat="48.69586" lon="2.19203">
        <ele>103.48</ele>
        <time>2020-06-06T14:29:12Z</time>
      </trkpt>
      <trkpt lat="48.69588" lon="2.19202">
        <ele>103</ele>
        <time>2020-06-06T14:29:13Z</time>
      </trkpt>
      <trkpt lat="48.69594" lon="2.19194">
        <ele>102.04</ele>
        <time>2020-06-06T14:29:19Z</time>
      </trkpt>
      <trkpt lat="48.69598" lon="2.19203">
        <ele>90.7</ele>
      </trkpt>
      <trkpt lat="48.69603" lon="2.19203">
        <ele>90.6</ele>
      </trkpt>
      <trkpt lat="48.69608" lon="2.19203">
        <ele>90.6</ele>
      </trkpt>
      <trkpt lat="48.69614" lon="2.19204">
        <ele>90.6</ele>
      </trkpt>
      <trkpt lat="48.69622" lon="2.19201">
        <ele>90.5</ele>
      </trkpt>
      <trkpt lat="48.69621" lon="2.19181">
        <ele>90.5</ele>
      </trkpt>
      <trkpt lat="48.69621" lon="2.19166">
        <ele>103</ele>
        <time>2020-06-06T14:29:36Z</time>
      </trkpt>
      <trkpt lat="48.69628" lon="2.19164">
        <ele>102.04</ele>
        <time>2020-06-06T14:29:40Z</time>
      </trkpt>
      <trkpt lat="48.69636" lon="2.19173">
        <ele>101.56</ele>
        <time>2020-06-06T14:29:49Z</time>
      </trkpt>
      <trkpt lat="48.69638" lon="2.19192">
        <ele>90.4</ele>
      </trkpt>
      <trkpt lat="48.69645" lon="2.19189">
        <ele>90.4</ele>
      </trkpt>
      <trkpt lat="48.69656" lon="2.19188">
        <ele>101.56</ele>
        <time>2020-06-06T14:30:06Z</time>
      </trkpt>
      <trkpt lat="48.69657" lon="2.19188">
        <ele>102.52</ele>
        <time>2020-06-06T14:30:07Z</time>
      </trkpt>
      <trkpt lat="48.69659" lon="2.19189">
        <ele>101.08</ele>
        <time>2020-06-06T14:30:08Z</time>
      </trkpt>
      <trkpt lat="48.69661" lon="2.1919">
        <ele>100.6</ele>
        <time>2020-06-06T14:30:09Z</time>
      </trkpt>
      <trkpt lat="48.69697" lon="2.19198">
        <ele>99.15</ele>
        <time>2020-06-06T14:30:23Z</time>
      </trkpt>
      <trkpt lat="48.69703" lon="2.19198">
        <ele>98.67</ele>
        <time>2020-06-06T14:30:26Z</time>
      </trkpt>
      <trkpt lat="48.69705" lon="2.19197">
        <ele>98.67</ele>
        <time>2020-06-06T14:30:27Z</time>
      </trkpt>
      <trkpt lat="48.69707" lon="2.19196">
        <ele>98.19</ele>
        <time>2020-06-06T14:30:28Z</time>
      </trkpt>
      <trkpt lat="48.69709" lon="2.19196">
        <ele>98.19</ele>
        <time>2020-06-06T14:30:29Z</time>
      </trkpt>
      <trkpt lat="48.6971" lon="2.19196">
        <ele>97.71</ele>
        <time>2020-06-06T14:30:30Z</time>
      </trkpt>
      <trkpt lat="48.69712" lon="2.19196">
        <ele>97.23</ele>
        <time>2020-06-06T14:30:31Z</time>
      </trkpt>
      <trkpt lat="48.69735" lon="2.1918">
        <ele>96.27</ele>
        <time>2020-06-06T14:30:45Z</time>
      </trkpt>
      <trkpt lat="48.69754" lon="2.19175">
        <ele>95.31</ele>
        <time>2020-06-06T14:30:51Z</time>
      </trkpt>
      <trkpt lat="48.69757" lon="2.19174">
        <ele>94.83</ele>
        <time>2020-06-06T14:30:52Z</time>
      </trkpt>
      <trkpt lat="48.6979" lon="2.19135">
        <ele>91.94</ele>
        <time>2020-06-06T14:31:05Z</time>
      </trkpt>
      <trkpt lat="48.698" lon="2.19109">
        <ele>90.5</ele>
        <time>2020-06-06T14:31:16Z</time>
      </trkpt>
      <trkpt lat="48.69804" lon="2.19097">
        <ele>90.02</ele>
        <time>2020-06-06T14:31:21Z</time>
      </trkpt>
      <trkpt lat="48.69806" lon="2.19098">
        <ele>89.54</ele>
        <time>2020-06-06T14:31:23Z</time>
      </trkpt>
      <trkpt lat="48.69815" lon="2.19125">
        <ele>80.6</ele>
      </trkpt>
      <trkpt lat="48.69825" lon="2.19141">
        <ele>80.2</ele>
      </trkpt>
      <trkpt lat="48.69834" lon="2.19156">
        <ele>75.8</ele>
      </trkpt>
      <trkpt lat="48.69868" lon="2.19155">
        <ele>81.37</ele>
        <time>2020-06-06T14:31:54Z</time>
      </trkpt>
      <trkpt lat="48.69903" lon="2.19174">
        <ele>78</ele>
        <time>2020-06-06T14:32:07Z</time>
      </trkpt>
      <trkpt lat="48.69952" lon="2.19171">
        <ele>77.04</ele>
        <time>2020-06-06T14:32:18Z</time>
      </trkpt>
      <trkpt lat="48.69987" lon="2.1918">
        <ele>74.64</ele>
        <time>2020-06-06T14:32:31Z</time>
      </trkpt>
      <trkpt lat="48.70013" lon="2.192">
        <ele>75.12</ele>
        <time>2020-06-06T14:32:46Z</time>
      </trkpt>
      <trkpt lat="48.70011" lon="2.19207">
        <ele>75.12</ele>
        <time>2020-06-06T14:32:47Z</time>
      </trkpt>
      <trkpt lat="48.70028" lon="2.1927">
        <ele>61</ele>
      </trkpt>
      <trkpt lat="48.70028" lon="2.19332">
        <ele>60.2</ele>
      </trkpt>
      <trkpt lat="48.7003" lon="2.19379">
        <ele>59.3</ele>
      </trkpt>
      <trkpt lat="48.70028" lon="2.19412">
        <ele>59.4</ele>
      </trkpt>
      <trkpt lat="48.70027" lon="2.19421">
        <ele>59.1</ele>
      </trkpt>
      <trkpt lat="48.70029" lon="2.19429">
        <ele>59.1</ele>
      </trkpt>
      <trkpt lat="48.70032" lon="2.19434">
        <ele>59</ele>
      </trkpt>
      <trkpt lat="48.70036" lon="2.19446">
        <ele>58.9</ele>
      </trkpt>
      <trkpt lat="48.70034" lon="2.19439">
        <ele>58.9</ele>
      </trkpt>
      <trkpt lat="48.70038" lon="2.1945">
        <ele>58.8</ele>
      </trkpt>
      <trkpt lat="48.70036" lon="2.1946">
        <ele>58.8</ele>
      </trkpt>
      <trkpt lat="48.70036" lon="2.19478">
        <ele>74.16</ele>
        <time>2020-06-06T14:33:46Z</time>
      </trkpt>
      <trkpt lat="48.70036" lon="2.19481">
        <ele>73.68</ele>
        <time>2020-06-06T14:33:47Z</time>
      </trkpt>
      <trkpt lat="48.70037" lon="2.19484">
        <ele>73.68</ele>
        <time>2020-06-06T14:33:48Z</time>
      </trkpt>
      <trkpt lat="48.70038" lon="2.19487">
        <ele>73.68</ele>
        <time>2020-06-06T14:33:49Z</time>
      </trkpt>
      <trkpt lat="48.70039" lon="2.19491">
        <ele>74.16</ele>
        <time>2020-06-06T14:33:50Z</time>
      </trkpt>
      <trkpt lat="48.7004" lon="2.19495">
        <ele>73.68</ele>
        <time>2020-06-06T14:33:51Z</time>
      </trkpt>
      <trkpt lat="48.70041" lon="2.19498">
        <ele>73.68</ele>
        <time>2020-06-06T14:33:52Z</time>
      </trkpt>
      <trkpt lat="48.70043" lon="2.195">
        <ele>73.68</ele>
        <time>2020-06-06T14:33:53Z</time>
      </trkpt>
      <trkpt lat="48.70048" lon="2.19508">
        <ele>58.2</ele>
      </trkpt>
      <trkpt lat="48.70059" lon="2.19524">
        <ele>57.9</ele>
      </trkpt>
      <trkpt lat="48.70064" lon="2.19537">
        <ele>57.7</ele>
      </trkpt>
      <trkpt lat="48.70069" lon="2.19559">
        <ele>57.2</ele>
      </trkpt>
      <trkpt lat="48.70094" lon="2.19545">
        <ele>73.68</ele>
        <time>2020-06-06T14:34:10Z</time>
      </trkpt>
      <trkpt lat="48.70128" lon="2.19546">
        <ele>74.64</ele>
        <time>2020-06-06T14:34:24Z</time>
      </trkpt>
      <trkpt lat="48.70146" lon="2.19537">
        <ele>75.6</ele>
        <time>2020-06-06T14:34:31Z</time>
      </trkpt>
      <trkpt lat="48.70149" lon="2.19536">
        <ele>75.6</ele>
        <time>2020-06-06T14:34:32Z</time>
      </trkpt>
      <trkpt lat="48.70151" lon="2.19537">
        <ele>75.6</ele>
        <time>2020-06-06T14:34:33Z</time>
      </trkpt>
      <trkpt lat="48.70154" lon="2.19536">
        <ele>75.6</ele>
        <time>2020-06-06T14:34:34Z</time>
      </trkpt>
      <trkpt lat="48.70156" lon="2.19536">
        <ele>75.6</ele>
        <time>2020-06-06T14:34:35Z</time>
      </trkpt>
      <trkpt lat="48.70157" lon="2.19537">
        <ele>76.08</ele>
        <time>2020-06-06T14:34:36Z</time>
      </trkpt>
      <trkpt lat="48.70159" lon="2.19536">
        <ele>75.6</ele>
        <time>2020-06-06T14:34:37Z</time>
      </trkpt>
      <trkpt lat="48.70161" lon="2.19536">
        <ele>75.6</ele>
        <time>2020-06-06T14:34:38Z</time>
      </trkpt>
      <trkpt lat="48.70163" lon="2.19535">
        <ele>75.12</ele>
        <time>2020-06-06T14:34:39Z</time>
      </trkpt>
      <trkpt lat="48.70165" lon="2.19533">
        <ele>75.12</ele>
        <time>2020-06-06T14:34:40Z</time>
      </trkpt>
      <trkpt lat="48.70167" lon="2.19533">
        <ele>75.6</ele>
        <time>2020-06-06T14:34:41Z</time>
      </trkpt>
      <trkpt lat="48.70169" lon="2.19533">
        <ele>75.12</ele>
        <time>2020-06-06T14:34:42Z</time>
      </trkpt>
      <trkpt lat="48.70199" lon="2.19517">
        <ele>76.08</ele>
        <time>2020-06-06T14:34:54Z</time>
      </trkpt>
      <trkpt lat="48.70229" lon="2.19505">
        <ele>77.52</ele>
        <time>2020-06-06T14:35:08Z</time>
      </trkpt>
      <trkpt lat="48.7026" lon="2.19487">
        <ele>78.48</ele>
        <time>2020-06-06T14:35:20Z</time>
      </trkpt>
      <trkpt lat="48.70291" lon="2.19468">
        <ele>78.97</ele>
        <time>2020-06-06T14:35:32Z</time>
      </trkpt>
      <trkpt lat="48.70301" lon="2.19461">
        <ele>78.97</ele>
        <time>2020-06-06T14:35:35Z</time>
      </trkpt>
      <trkpt lat="48.70304" lon="2.19459">
        <ele>78.97</ele>
        <time>2020-06-06T14:35:36Z</time>
      </trkpt>
      <trkpt lat="48.70312" lon="2.19455">
        <ele>78.97</ele>
        <time>2020-06-06T14:35:39Z</time>
      </trkpt>
      <trkpt lat="48.70315" lon="2.19454">
        <ele>78.48</ele>
        <time>2020-06-06T14:35:40Z</time>
      </trkpt>
      <trkpt lat="48.70317" lon="2.19453">
        <ele>78.48</ele>
        <time>2020-06-06T14:35:41Z</time>
      </trkpt>
      <trkpt lat="48.70319" lon="2.19452">
        <ele>78.48</ele>
        <time>2020-06-06T14:35:42Z</time>
      </trkpt>
      <trkpt lat="48.70321" lon="2.19451">
        <ele>78.97</ele>
        <time>2020-06-06T14:35:43Z</time>
      </trkpt>
      <trkpt lat="48.70322" lon="2.19451">
        <ele>78.97</ele>
        <time>2020-06-06T14:35:44Z</time>
      </trkpt>
      <trkpt lat="48.70351" lon="2.19435">
        <ele>80.89</ele>
        <time>2020-06-06T14:35:56Z</time>
      </trkpt>
      <trkpt lat="48.70381" lon="2.19417">
        <ele>82.33</ele>
        <time>2020-06-06T14:36:08Z</time>
      </trkpt>
      <trkpt lat="48.70403" lon="2.19389">
        <ele>83.29</ele>
        <time>2020-06-06T14:36:18Z</time>
      </trkpt>
      <trkpt lat="48.70424" lon="2.19362">
        <ele>83.77</ele>
        <time>2020-06-06T14:36:25Z</time>
      </trkpt>
      <trkpt lat="48.70426" lon="2.19357">
        <ele>83.77</ele>
        <time>2020-06-06T14:36:26Z</time>
      </trkpt>
      <trkpt lat="48.70427" lon="2.19353">
        <ele>83.77</ele>
        <time>2020-06-06T14:36:27Z</time>
      </trkpt>
      <trkpt lat="48.70427" lon="2.19349">
        <ele>83.29</ele>
        <time>2020-06-06T14:36:28Z</time>
      </trkpt>
      <trkpt lat="48.70428" lon="2.19346">
        <ele>83.77</ele>
        <time>2020-06-06T14:36:29Z</time>
      </trkpt>
      <trkpt lat="48.70429" lon="2.19342">
        <ele>83.29</ele>
        <time>2020-06-06T14:36:30Z</time>
      </trkpt>
      <trkpt lat="48.70429" lon="2.19339">
        <ele>83.77</ele>
        <time>2020-06-06T14:36:31Z</time>
      </trkpt>
      <trkpt lat="48.70431" lon="2.19337">
        <ele>83.77</ele>
        <time>2020-06-06T14:36:32Z</time>
      </trkpt>
      <trkpt lat="48.70432" lon="2.19335">
        <ele>83.77</ele>
        <time>2020-06-06T14:36:33Z</time>
      </trkpt>
      <trkpt lat="48.70461" lon="2.19315">
        <ele>84.73</ele>
        <time>2020-06-06T14:36:47Z</time>
      </trkpt>
      <trkpt lat="48.70488" lon="2.19302">
        <ele>85.21</ele>
        <time>2020-06-06T14:37:01Z</time>
      </trkpt>
      <trkpt lat="48.70504" lon="2.19297">
        <ele>86.66</ele>
        <time>2020-06-06T14:37:09Z</time>
      </trkpt>
      <trkpt lat="48.70528" lon="2.19281">
        <ele>87.14</ele>
        <time>2020-06-06T14:37:21Z</time>
      </trkpt>
      <trkpt lat="48.70548" lon="2.19262">
        <ele>90.02</ele>
        <time>2020-06-06T14:37:30Z</time>
      </trkpt>
      <trkpt lat="48.70551" lon="2.19259">
        <ele>90.98</ele>
        <time>2020-06-06T14:37:32Z</time>
      </trkpt>
      <trkpt lat="48.70553" lon="2.19257">
        <ele>90.98</ele>
        <time>2020-06-06T14:37:33Z</time>
      </trkpt>
      <trkpt lat="48.70566" lon="2.19253">
        <ele>90.98</ele>
        <time>2020-06-06T14:37:39Z</time>
      </trkpt>
      <trkpt lat="48.70568" lon="2.19254">
        <ele>90.98</ele>
        <time>2020-06-06T14:37:40Z</time>
      </trkpt>
      <trkpt lat="48.70585" lon="2.19256">
        <ele>92.42</ele>
        <time>2020-06-06T14:37:50Z</time>
      </trkpt>
      <trkpt lat="48.7061" lon="2.19252">
        <ele>95.79</ele>
        <time>2020-06-06T14:38:07Z</time>
      </trkpt>
      <trkpt lat="48.70623" lon="2.19258">
        <ele>99.15</ele>
        <time>2020-06-06T14:38:21Z</time>
      </trkpt>
      <trkpt lat="48.70626" lon="2.19258">
        <ele>101.56</ele>
        <time>2020-06-06T14:38:26Z</time>
      </trkpt>
      <trkpt lat="48.70646" lon="2.19263">
        <ele>103</ele>
        <time>2020-06-06T14:38:39Z</time>
      </trkpt>
      <trkpt lat="48.70659" lon="2.19271">
        <ele>104.44</ele>
        <time>2020-06-06T14:38:53Z</time>
      </trkpt>
      <trkpt lat="48.70685" lon="2.1929">
        <ele>106.84</ele>
        <time>2020-06-06T14:39:09Z</time>
      </trkpt>
      <trkpt lat="48.70711" lon="2.19315">
        <ele>110.21</ele>
        <time>2020-06-06T14:39:26Z</time>
      </trkpt>
      <trkpt lat="48.70721" lon="2.19313">
        <ele>112.61</ele>
        <time>2020-06-06T14:39:39Z</time>
      </trkpt>
      <trkpt lat="48.70732" lon="2.1931">
        <ele>92.6</ele>
      </trkpt>
      <trkpt lat="48.70746" lon="2.19294">
        <ele>92.4</ele>
      </trkpt>
      <trkpt lat="48.70754" lon="2.19284">
        <ele>103.8</ele>
      </trkpt>
      <trkpt lat="48.70766" lon="2.1927">
        <ele>103.3</ele>
      </trkpt>
      <trkpt lat="48.70775" lon="2.19264">
        <ele>104.4</ele>
      </trkpt>
      <trkpt lat="48.70785" lon="2.19258">
        <ele>106.4</ele>
      </trkpt>
      <trkpt lat="48.70794" lon="2.1925">
        <ele>105</ele>
      </trkpt>
      <trkpt lat="48.70799" lon="2.19244">
        <ele>106</ele>
      </trkpt>
      <trkpt lat="48.70807" lon="2.19233">
        <ele>107.1</ele>
      </trkpt>
      <trkpt lat="48.70815" lon="2.19227">
        <ele>107.9</ele>
      </trkpt>
      <trkpt lat="48.70825" lon="2.19223">
        <ele>108.7</ele>
      </trkpt>
      <trkpt lat="48.70834" lon="2.19214">
        <ele>123.4</ele>
      </trkpt>
      <trkpt lat="48.70844" lon="2.19197">
        <ele>122.9</ele>
      </trkpt>
      <trkpt lat="48.70852" lon="2.1918">
        <ele>121.7</ele>
      </trkpt>
      <trkpt lat="48.7086" lon="2.19163">
        <ele>118.9</ele>
      </trkpt>
      <trkpt lat="48.70867" lon="2.19153">
        <ele>120.5</ele>
      </trkpt>
      <trkpt lat="48.70874" lon="2.1914">
        <ele>121.5</ele>
      </trkpt>
      <trkpt lat="48.70883" lon="2.19128">
        <ele>122.3</ele>
      </trkpt>
      <trkpt lat="48.70895" lon="2.19117">
        <ele>123.3</ele>
      </trkpt>
      <trkpt lat="48.70904" lon="2.19113">
        <ele>124.1</ele>
      </trkpt>
      <trkpt lat="48.70914" lon="2.19108">
        <ele>124.9</ele>
      </trkpt>
      <trkpt lat="48.70924" lon="2.19104">
        <ele>136.6</ele>
      </trkpt>
      <trkpt lat="48.70934" lon="2.19099">
        <ele>137.3</ele>
      </trkpt>
      <trkpt lat="48.70946" lon="2.19092">
        <ele>139.1</ele>
      </trkpt>
      <trkpt lat="48.70959" lon="2.19089">
        <ele>141.3</ele>
      </trkpt>
      <trkpt lat="48.70973" lon="2.19088">
        <ele>143.5</ele>
      </trkpt>
      <trkpt lat="48.70987" lon="2.19085">
        <ele>145.6</ele>
      </trkpt>
      <trkpt lat="48.70998" lon="2.19083">
        <ele>146.6</ele>
      </trkpt>
      <trkpt lat="48.71017" lon="2.19084">
        <ele>151.5</ele>
      </trkpt>
      <trkpt lat="48.71022" lon="2.191">
        <ele>152.9</ele>
      </trkpt>
      <trkpt lat="48.71027" lon="2.19116">
        <ele>154.1</ele>
      </trkpt>
      <trkpt lat="48.71033" lon="2.19141">
        <ele>155.1</ele>
      </trkpt>
      <trkpt lat="48.71041" lon="2.19162">
        <ele>155.9</ele>
      </trkpt>
      <trkpt lat="48.7105" lon="2.19187">
        <ele>158.2</ele>
      </trkpt>
      <trkpt lat="48.71057" lon="2.19211">
        <ele>158.5</ele>
      </trkpt>
      <trkpt lat="48.71068" lon="2.19244">
        <ele>159.5</ele>
      </trkpt>
      <trkpt lat="48.71083" lon="2.19267">
        <ele>159.4</ele>
      </trkpt>
      <trkpt lat="48.71073" lon="2.19387">
        <ele>164.04</ele>
        <time>2020-06-06T14:45:18Z</time>
      </trkpt>
      <trkpt lat="48.71081" lon="2.19394">
        <ele>164.52</ele>
        <time>2020-06-06T14:45:33Z</time>
      </trkpt>
      <trkpt lat="48.71088" lon="2.19383">
        <ele>168.37</ele>
        <time>2020-06-06T14:45:45Z</time>
      </trkpt>
      <trkpt lat="48.71099" lon="2.19382">
        <ele>168.85</ele>
        <time>2020-06-06T14:46:03Z</time>
      </trkpt>
      <trkpt lat="48.71104" lon="2.19374">
        <ele>168.85</ele>
        <time>2020-06-06T14:46:20Z</time>
      </trkpt>
      <trkpt lat="48.71108" lon="2.1938">
        <ele>169.33</ele>
        <time>2020-06-06T14:46:39Z</time>
      </trkpt>
      <trkpt lat="48.71106" lon="2.19391">
        <ele>170.29</ele>
        <time>2020-06-06T14:46:53Z</time>
      </trkpt>
      <trkpt lat="48.71105" lon="2.19388">
        <ele>170.29</ele>
        <time>2020-06-06T14:47:12Z</time>
      </trkpt>
      <trkpt lat="48.71103" lon="2.19403">
        <ele>169.81</ele>
        <time>2020-06-06T14:47:28Z</time>
      </trkpt>
      <trkpt lat="48.71102" lon="2.19414">
        <ele>169.33</ele>
        <time>2020-06-06T14:47:42Z</time>
      </trkpt>
      <trkpt lat="48.71103" lon="2.19422">
        <ele>165.96</ele>
        <time>2020-06-06T14:47:53Z</time>
      </trkpt>
      <trkpt lat="48.71103" lon="2.19422">
        <ele>166.45</ele>
        <time>2020-06-06T14:47:54Z</time>
      </trkpt>
      <trkpt lat="48.71103" lon="2.19431">
        <ele>164.04</ele>
        <time>2020-06-06T14:47:59Z</time>
      </trkpt>
      <trkpt lat="48.71108" lon="2.19463">
        <ele>165.48</ele>
        <time>2020-06-06T14:48:21Z</time>
      </trkpt>
      <trkpt lat="48.71115" lon="2.19462">
        <ele>165</ele>
        <time>2020-06-06T14:48:36Z</time>
      </trkpt>
      <trkpt lat="48.71109" lon="2.19442">
        <ele>165.48</ele>
        <time>2020-06-06T14:48:53Z</time>
      </trkpt>
      <trkpt lat="48.71099" lon="2.19448">
        <ele>165.96</ele>
        <time>2020-06-06T14:49:09Z</time>
      </trkpt>
      <trkpt lat="48.71096" lon="2.19451">
        <ele>165.48</ele>
        <time>2020-06-06T14:49:12Z</time>
      </trkpt>
      <trkpt lat="48.71093" lon="2.19468">
        <ele>166.45</ele>
        <time>2020-06-06T14:49:17Z</time>
      </trkpt>
      <trkpt lat="48.7109" lon="2.19476">
        <ele>166.45</ele>
        <time>2020-06-06T14:49:19Z</time>
      </trkpt>
      <trkpt lat="48.71088" lon="2.19511">
        <ele>168.37</ele>
        <time>2020-06-06T14:49:29Z</time>
      </trkpt>
      <trkpt lat="48.71093" lon="2.19527">
        <ele>168.85</ele>
        <time>2020-06-06T14:49:34Z</time>
      </trkpt>
      <trkpt lat="48.71084" lon="2.19579">
        <ele>169.81</ele>
        <time>2020-06-06T14:49:48Z</time>
      </trkpt>
      <trkpt lat="48.71088" lon="2.19639">
        <ele>172.21</ele>
        <time>2020-06-06T14:50:03Z</time>
      </trkpt>
      <trkpt lat="48.71096" lon="2.19684">
        <ele>175.1</ele>
        <time>2020-06-06T14:50:17Z</time>
      </trkpt>
      <trkpt lat="48.71099" lon="2.19717">
        <ele>177.98</ele>
        <time>2020-06-06T14:50:28Z</time>
      </trkpt>
      <trkpt lat="48.71111" lon="2.19757">
        <ele>179.9</ele>
        <time>2020-06-06T14:50:42Z</time>
      </trkpt>
      <trkpt lat="48.71116" lon="2.19783">
        <ele>180.38</ele>
        <time>2020-06-06T14:50:52Z</time>
      </trkpt>
      <trkpt lat="48.71116" lon="2.19828">
        <ele>180.87</ele>
        <time>2020-06-06T14:51:03Z</time>
      </trkpt>
      <trkpt lat="48.71124" lon="2.19872">
        <ele>180.38</ele>
        <time>2020-06-06T14:51:16Z</time>
      </trkpt>
      <trkpt lat="48.71117" lon="2.19915">
        <ele>180.38</ele>
        <time>2020-06-06T14:51:27Z</time>
      </trkpt>
      <trkpt lat="48.71114" lon="2.19934">
        <ele>180.38</ele>
        <time>2020-06-06T14:51:31Z</time>
      </trkpt>
      <trkpt lat="48.71106" lon="2.19985">
        <ele>180.38</ele>
        <time>2020-06-06T14:51:44Z</time>
      </trkpt>
      <trkpt lat="48.71109" lon="2.20038">
        <ele>179.9</ele>
        <time>2020-06-06T14:51:57Z</time>
      </trkpt>
      <trkpt lat="48.71099" lon="2.20086">
        <ele>179.9</ele>
        <time>2020-06-06T14:52:08Z</time>
      </trkpt>
      <trkpt lat="48.71083" lon="2.20145">
        <ele>179.9</ele>
        <time>2020-06-06T14:52:22Z</time>
      </trkpt>
      <trkpt lat="48.71081" lon="2.20163">
        <ele>180.38</ele>
        <time>2020-06-06T14:52:26Z</time>
      </trkpt>
      <trkpt lat="48.71079" lon="2.20206">
        <ele>180.38</ele>
        <time>2020-06-06T14:52:38Z</time>
      </trkpt>
      <trkpt lat="48.71073" lon="2.2024">
        <ele>180.87</ele>
        <time>2020-06-06T14:52:49Z</time>
      </trkpt>
      <trkpt lat="48.71059" lon="2.20271">
        <ele>181.35</ele>
        <time>2020-06-06T14:52:59Z</time>
      </trkpt>
      <trkpt lat="48.71058" lon="2.20274">
        <ele>180.87</ele>
        <time>2020-06-06T14:53:00Z</time>
      </trkpt>
      <trkpt lat="48.71057" lon="2.20277">
        <ele>181.35</ele>
        <time>2020-06-06T14:53:01Z</time>
      </trkpt>
      <trkpt lat="48.71046" lon="2.20322">
        <ele>180.87</ele>
        <time>2020-06-06T14:53:14Z</time>
      </trkpt>
      <trkpt lat="48.71029" lon="2.2038">
        <ele>181.83</ele>
        <time>2020-06-06T14:53:25Z</time>
      </trkpt>
      <trkpt lat="48.71024" lon="2.20397">
        <ele>181.83</ele>
        <time>2020-06-06T14:53:29Z</time>
      </trkpt>
      <trkpt lat="48.71022" lon="2.204">
        <ele>181.35</ele>
        <time>2020-06-06T14:53:30Z</time>
      </trkpt>
      <trkpt lat="48.7102" lon="2.20403">
        <ele>181.35</ele>
        <time>2020-06-06T14:53:31Z</time>
      </trkpt>
      <trkpt lat="48.71006" lon="2.20437">
        <ele>181.83</ele>
        <time>2020-06-06T14:53:41Z</time>
      </trkpt>
      <trkpt lat="48.71004" lon="2.20441">
        <ele>181.83</ele>
        <time>2020-06-06T14:53:42Z</time>
      </trkpt>
      <trkpt lat="48.70986" lon="2.20458">
        <ele>181.83</ele>
        <time>2020-06-06T14:53:55Z</time>
      </trkpt>
      <trkpt lat="48.70984" lon="2.20464">
        <ele>178.46</ele>
        <time>2020-06-06T14:54:02Z</time>
      </trkpt>
      <trkpt lat="48.70985" lon="2.20464">
        <ele>178.46</ele>
        <time>2020-06-06T14:54:03Z</time>
      </trkpt>
      <trkpt lat="48.70985" lon="2.20464">
        <ele>178.94</ele>
        <time>2020-06-06T14:54:04Z</time>
      </trkpt>
      <trkpt lat="48.70987" lon="2.20464">
        <ele>179.42</ele>
        <time>2020-06-06T14:54:05Z</time>
      </trkpt>
      <trkpt lat="48.70991" lon="2.20466">
        <ele>178.46</ele>
        <time>2020-06-06T14:54:11Z</time>
      </trkpt>
      <trkpt lat="48.70988" lon="2.20469">
        <ele>178.46</ele>
        <time>2020-06-06T14:54:12Z</time>
      </trkpt>
      <trkpt lat="48.70973" lon="2.20492">
        <ele>177.02</ele>
        <time>2020-06-06T14:54:20Z</time>
      </trkpt>
      <trkpt lat="48.70958" lon="2.2054">
        <ele>174.62</ele>
        <time>2020-06-06T14:54:33Z</time>
      </trkpt>
      <trkpt lat="48.70936" lon="2.20591">
        <ele>175.1</ele>
        <time>2020-06-06T14:54:44Z</time>
      </trkpt>
      <trkpt lat="48.7093" lon="2.20611">
        <ele>175.58</ele>
        <time>2020-06-06T14:54:50Z</time>
      </trkpt>
      <trkpt lat="48.70912" lon="2.20662">
        <ele>176.54</ele>
        <time>2020-06-06T14:55:03Z</time>
      </trkpt>
      <trkpt lat="48.70904" lon="2.20708">
        <ele>176.06</ele>
        <time>2020-06-06T14:55:18Z</time>
      </trkpt>
      <trkpt lat="48.70907" lon="2.20756">
        <ele>174.62</ele>
        <time>2020-06-06T14:55:32Z</time>
      </trkpt>
      <trkpt lat="48.70906" lon="2.20812">
        <ele>173.66</ele>
        <time>2020-06-06T14:55:46Z</time>
      </trkpt>
      <trkpt lat="48.70907" lon="2.20863">
        <ele>173.17</ele>
        <time>2020-06-06T14:55:59Z</time>
      </trkpt>
      <trkpt lat="48.70899" lon="2.20902">
        <ele>172.69</ele>
        <time>2020-06-06T14:56:11Z</time>
      </trkpt>
      <trkpt lat="48.70889" lon="2.20946">
        <ele>172.69</ele>
        <time>2020-06-06T14:56:22Z</time>
      </trkpt>
      <trkpt lat="48.70867" lon="2.20999">
        <ele>172.69</ele>
        <time>2020-06-06T14:56:36Z</time>
      </trkpt>
      <trkpt lat="48.70868" lon="2.21023">
        <ele>175.1</ele>
        <time>2020-06-06T14:56:42Z</time>
      </trkpt>
      <trkpt lat="48.70863" lon="2.21034">
        <ele>175.58</ele>
        <time>2020-06-06T14:56:47Z</time>
      </trkpt>
      <trkpt lat="48.70846" lon="2.21069">
        <ele>175.58</ele>
        <time>2020-06-06T14:56:58Z</time>
      </trkpt>
      <trkpt lat="48.70844" lon="2.21071">
        <ele>176.06</ele>
        <time>2020-06-06T14:56:59Z</time>
      </trkpt>
      <trkpt lat="48.70833" lon="2.21085">
        <ele>176.06</ele>
        <time>2020-06-06T14:57:03Z</time>
      </trkpt>
      <trkpt lat="48.70829" lon="2.21128">
        <ele>176.54</ele>
        <time>2020-06-06T14:57:15Z</time>
      </trkpt>
      <trkpt lat="48.70839" lon="2.21159">
        <ele>179.42</ele>
        <time>2020-06-06T14:57:27Z</time>
      </trkpt>
      <trkpt lat="48.7084" lon="2.21156">
        <ele>179.9</ele>
        <time>2020-06-06T14:57:29Z</time>
      </trkpt>
      <trkpt lat="48.70844" lon="2.21155">
        <ele>180.38</ele>
        <time>2020-06-06T14:57:33Z</time>
      </trkpt>
      <trkpt lat="48.70851" lon="2.21151">
        <ele>181.35</ele>
        <time>2020-06-06T14:57:38Z</time>
      </trkpt>
      <trkpt lat="48.70857" lon="2.21147">
        <ele>181.83</ele>
        <time>2020-06-06T14:57:41Z</time>
      </trkpt>
      <trkpt lat="48.7086" lon="2.21145">
        <ele>181.35</ele>
        <time>2020-06-06T14:57:43Z</time>
      </trkpt>
      <trkpt lat="48.70879" lon="2.21134">
        <ele>181.83</ele>
        <time>2020-06-06T14:57:55Z</time>
      </trkpt>
      <trkpt lat="48.70899" lon="2.21095">
        <ele>182.31</ele>
        <time>2020-06-06T14:58:03Z</time>
      </trkpt>
      <trkpt lat="48.70903" lon="2.21097">
        <ele>182.31</ele>
        <time>2020-06-06T14:58:07Z</time>
      </trkpt>
      <trkpt lat="48.70903" lon="2.211">
        <ele>182.31</ele>
        <time>2020-06-06T14:58:08Z</time>
      </trkpt>
      <trkpt lat="48.70923" lon="2.21128">
        <ele>182.79</ele>
        <time>2020-06-06T14:58:20Z</time>
      </trkpt>
      <trkpt lat="48.70954" lon="2.21139">
        <ele>183.27</ele>
        <time>2020-06-06T14:58:32Z</time>
      </trkpt>
      <trkpt lat="48.7099" lon="2.21162">
        <ele>182.31</ele>
        <time>2020-06-06T14:58:45Z</time>
      </trkpt>
      <trkpt lat="48.70994" lon="2.21157">
        <ele>182.31</ele>
        <time>2020-06-06T14:58:46Z</time>
      </trkpt>
      <trkpt lat="48.70997" lon="2.21155">
        <ele>182.31</ele>
        <time>2020-06-06T14:58:47Z</time>
      </trkpt>
      <trkpt lat="48.71019" lon="2.2116">
        <ele>182.79</ele>
        <time>2020-06-06T14:58:59Z</time>
      </trkpt>
      <trkpt lat="48.71039" lon="2.21183">
        <ele>183.75</ele>
        <time>2020-06-06T14:59:12Z</time>
      </trkpt>
      <trkpt lat="48.71074" lon="2.21215">
        <ele>183.27</ele>
        <time>2020-06-06T14:59:28Z</time>
      </trkpt>
      <trkpt lat="48.7109" lon="2.21223">
        <ele>183.75</ele>
        <time>2020-06-06T14:59:41Z</time>
      </trkpt>
      <trkpt lat="48.71109" lon="2.21229">
        <ele>184.71</ele>
        <time>2020-06-06T14:59:53Z</time>
      </trkpt>
      <trkpt lat="48.71136" lon="2.2121">
        <ele>184.23</ele>
        <time>2020-06-06T15:00:07Z</time>
      </trkpt>
      <trkpt lat="48.71172" lon="2.21155">
        <ele>184.71</ele>
        <time>2020-06-06T15:00:25Z</time>
      </trkpt>
      <trkpt lat="48.71175" lon="2.2116">
        <ele>185.67</ele>
        <time>2020-06-06T15:00:40Z</time>
      </trkpt>
      <trkpt lat="48.71178" lon="2.21159">
        <ele>185.19</ele>
        <time>2020-06-06T15:00:55Z</time>
      </trkpt>
      <trkpt lat="48.71184" lon="2.21179">
        <ele>186.15</ele>
        <time>2020-06-06T15:01:16Z</time>
      </trkpt>
      <trkpt lat="48.71187" lon="2.21182">
        <ele>186.15</ele>
        <time>2020-06-06T15:01:32Z</time>
      </trkpt>
      <trkpt lat="48.71191" lon="2.21208">
        <ele>186.15</ele>
        <time>2020-06-06T15:01:44Z</time>
      </trkpt>
      <trkpt lat="48.7119" lon="2.2121">
        <ele>186.15</ele>
        <time>2020-06-06T15:01:45Z</time>
      </trkpt>
      <trkpt lat="48.71159" lon="2.21219">
        <ele>186.63</ele>
        <time>2020-06-06T15:01:56Z</time>
      </trkpt>
      <trkpt lat="48.71124" lon="2.21215">
        <ele>185.67</ele>
        <time>2020-06-06T15:02:10Z</time>
      </trkpt>
      <trkpt lat="48.71103" lon="2.2121">
        <ele>186.63</ele>
        <time>2020-06-06T15:02:21Z</time>
      </trkpt>
      <trkpt lat="48.71071" lon="2.21209">
        <ele>185.67</ele>
        <time>2020-06-06T15:02:31Z</time>
      </trkpt>
      <trkpt lat="48.71053" lon="2.21201">
        <ele>185.67</ele>
        <time>2020-06-06T15:02:38Z</time>
      </trkpt>
      <trkpt lat="48.71051" lon="2.21198">
        <ele>186.15</ele>
        <time>2020-06-06T15:02:39Z</time>
      </trkpt>
      <trkpt lat="48.71038" lon="2.21174">
        <ele>185.19</ele>
        <time>2020-06-06T15:02:47Z</time>
      </trkpt>
      <trkpt lat="48.71002" lon="2.21164">
        <ele>186.15</ele>
        <time>2020-06-06T15:03:00Z</time>
      </trkpt>
      <trkpt lat="48.70987" lon="2.21153">
        <ele>185.67</ele>
        <time>2020-06-06T15:03:05Z</time>
      </trkpt>
      <trkpt lat="48.70984" lon="2.21152">
        <ele>186.15</ele>
        <time>2020-06-06T15:03:06Z</time>
      </trkpt>
      <trkpt lat="48.70982" lon="2.21152">
        <ele>185.67</ele>
        <time>2020-06-06T15:03:07Z</time>
      </trkpt>
      <trkpt lat="48.7098" lon="2.21152">
        <ele>185.19</ele>
        <time>2020-06-06T15:03:08Z</time>
      </trkpt>
      <trkpt lat="48.70979" lon="2.21153">
        <ele>185.19</ele>
        <time>2020-06-06T15:03:09Z</time>
      </trkpt>
      <trkpt lat="48.70952" lon="2.21163">
        <ele>184.23</ele>
        <time>2020-06-06T15:03:21Z</time>
      </trkpt>
      <trkpt lat="48.7095" lon="2.21165">
        <ele>184.71</ele>
        <time>2020-06-06T15:03:22Z</time>
      </trkpt>
      <trkpt lat="48.70948" lon="2.21165">
        <ele>184.71</ele>
        <time>2020-06-06T15:03:23Z</time>
      </trkpt>
      <trkpt lat="48.70948" lon="2.21164">
        <ele>184.71</ele>
        <time>2020-06-06T15:03:24Z</time>
      </trkpt>
      <trkpt lat="48.70946" lon="2.21162">
        <ele>184.23</ele>
        <time>2020-06-06T15:03:25Z</time>
      </trkpt>
      <trkpt lat="48.70945" lon="2.21161">
        <ele>184.23</ele>
        <time>2020-06-06T15:03:26Z</time>
      </trkpt>
      <trkpt lat="48.70942" lon="2.21153">
        <ele>184.23</ele>
        <time>2020-06-06T15:03:32Z</time>
      </trkpt>
      <trkpt lat="48.70941" lon="2.21149">
        <ele>183.75</ele>
        <time>2020-06-06T15:03:34Z</time>
      </trkpt>
      <trkpt lat="48.70941" lon="2.21146">
        <ele>183.27</ele>
        <time>2020-06-06T15:03:35Z</time>
      </trkpt>
      <trkpt lat="48.70938" lon="2.21143">
        <ele>183.75</ele>
        <time>2020-06-06T15:03:36Z</time>
      </trkpt>
      <trkpt lat="48.70935" lon="2.21128">
        <ele>183.27</ele>
        <time>2020-06-06T15:03:49Z</time>
      </trkpt>
      <trkpt lat="48.70935" lon="2.21126">
        <ele>182.79</ele>
        <time>2020-06-06T15:03:51Z</time>
      </trkpt>
      <trkpt lat="48.70933" lon="2.21122">
        <ele>181.83</ele>
        <time>2020-06-06T15:03:57Z</time>
      </trkpt>
      <trkpt lat="48.70933" lon="2.21118">
        <ele>181.35</ele>
        <time>2020-06-06T15:03:58Z</time>
      </trkpt>
      <trkpt lat="48.7093" lon="2.21119">
        <ele>181.35</ele>
        <time>2020-06-06T15:04:05Z</time>
      </trkpt>
      <trkpt lat="48.70919" lon="2.21121">
        <ele>179.42</ele>
        <time>2020-06-06T15:04:20Z</time>
      </trkpt>
      <trkpt lat="48.70915" lon="2.21126">
        <ele>174.62</ele>
        <time>2020-06-06T15:04:23Z</time>
      </trkpt>
      <trkpt lat="48.7091" lon="2.21129">
        <ele>184.71</ele>
        <time>2020-06-06T15:04:24Z</time>
      </trkpt>
      <trkpt lat="48.70909" lon="2.21129">
        <ele>179.9</ele>
        <time>2020-06-06T15:04:25Z</time>
      </trkpt>
      <trkpt lat="48.70887" lon="2.21153">
        <ele>179.42</ele>
        <time>2020-06-06T15:04:37Z</time>
      </trkpt>
      <trkpt lat="48.70878" lon="2.21162">
        <ele>180.38</ele>
        <time>2020-06-06T15:04:49Z</time>
      </trkpt>
      <trkpt lat="48.70877" lon="2.21163">
        <ele>180.87</ele>
        <time>2020-06-06T15:04:50Z</time>
      </trkpt>
      <trkpt lat="48.70873" lon="2.2118">
        <ele>181.83</ele>
        <time>2020-06-06T15:04:59Z</time>
      </trkpt>
      <trkpt lat="48.70852" lon="2.21198">
        <ele>179.9</ele>
        <time>2020-06-06T15:05:06Z</time>
      </trkpt>
      <trkpt lat="48.70848" lon="2.2121">
        <ele>147.9</ele>
      </trkpt>
      <trkpt lat="48.70845" lon="2.21216">
        <ele>147.7</ele>
      </trkpt>
      <trkpt lat="48.70843" lon="2.21229">
        <ele>147.1</ele>
      </trkpt>
      <trkpt lat="48.70847" lon="2.2124">
        <ele>146.7</ele>
      </trkpt>
      <trkpt lat="48.70848" lon="2.21258">
        <ele>146.9</ele>
      </trkpt>
      <trkpt lat="48.70849" lon="2.2127">
        <ele>147.6</ele>
      </trkpt>
      <trkpt lat="48.70851" lon="2.21286">
        <ele>148.3</ele>
      </trkpt>
      <trkpt lat="48.70854" lon="2.213">
        <ele>148.5</ele>
      </trkpt>
      <trkpt lat="48.70858" lon="2.21322">
        <ele>148.4</ele>
      </trkpt>
      <trkpt lat="48.70845" lon="2.21313">
        <ele>147.7</ele>
      </trkpt>
      <trkpt lat="48.70835" lon="2.21286">
        <ele>147.7</ele>
      </trkpt>
      <trkpt lat="48.70829" lon="2.21262">
        <ele>138.6</ele>
      </trkpt>
      <trkpt lat="48.70824" lon="2.21243">
        <ele>138.4</ele>
      </trkpt>
      <trkpt lat="48.70818" lon="2.21224">
        <ele>134.4</ele>
      </trkpt>
      <trkpt lat="48.70814" lon="2.21211">
        <ele>133.1</ele>
      </trkpt>
      <trkpt lat="48.70812" lon="2.21202">
        <ele>132.8</ele>
      </trkpt>
      <trkpt lat="48.7083" lon="2.21194">
        <ele>163.08</ele>
        <time>2020-06-06T15:06:23Z</time>
      </trkpt>
      <trkpt lat="48.70826" lon="2.21192">
        <ele>159.72</ele>
        <time>2020-06-06T15:06:24Z</time>
      </trkpt>
      <trkpt lat="48.70824" lon="2.2119">
        <ele>164.04</ele>
        <time>2020-06-06T15:06:26Z</time>
      </trkpt>
      <trkpt lat="48.70814" lon="2.21186">
        <ele>161.16</ele>
        <time>2020-06-06T15:06:33Z</time>
      </trkpt>
      <trkpt lat="48.70811" lon="2.21182">
        <ele>160.2</ele>
        <time>2020-06-06T15:06:35Z</time>
      </trkpt>
      <trkpt lat="48.70808" lon="2.21173">
        <ele>157.31</ele>
        <time>2020-06-06T15:06:40Z</time>
      </trkpt>
      <trkpt lat="48.70806" lon="2.21169">
        <ele>153.95</ele>
        <time>2020-06-06T15:06:44Z</time>
      </trkpt>
      <trkpt lat="48.70805" lon="2.21165">
        <ele>152.51</ele>
        <time>2020-06-06T15:06:47Z</time>
      </trkpt>
      <trkpt lat="48.70805" lon="2.21163">
        <ele>151.06</ele>
        <time>2020-06-06T15:06:48Z</time>
      </trkpt>
      <trkpt lat="48.70804" lon="2.2116">
        <ele>151.06</ele>
        <time>2020-06-06T15:06:49Z</time>
      </trkpt>
      <trkpt lat="48.70802" lon="2.21149">
        <ele>146.74</ele>
        <time>2020-06-06T15:06:54Z</time>
      </trkpt>
      <trkpt lat="48.708" lon="2.21137">
        <ele>144.34</ele>
        <time>2020-06-06T15:06:58Z</time>
      </trkpt>
      <trkpt lat="48.70797" lon="2.21132">
        <ele>140.49</ele>
        <time>2020-06-06T15:07:03Z</time>
      </trkpt>
      <trkpt lat="48.70791" lon="2.21128">
        <ele>137.61</ele>
        <time>2020-06-06T15:07:08Z</time>
      </trkpt>
      <trkpt lat="48.70789" lon="2.21124">
        <ele>136.64</ele>
        <time>2020-06-06T15:07:10Z</time>
      </trkpt>
      <trkpt lat="48.70788" lon="2.21117">
        <ele>133.28</ele>
        <time>2020-06-06T15:07:14Z</time>
      </trkpt>
      <trkpt lat="48.70785" lon="2.2112">
        <ele>131.84</ele>
        <time>2020-06-06T15:07:16Z</time>
      </trkpt>
      <trkpt lat="48.70765" lon="2.2112">
        <ele>128.95</ele>
        <time>2020-06-06T15:07:21Z</time>
      </trkpt>
      <trkpt lat="48.70745" lon="2.21112">
        <ele>124.63</ele>
        <time>2020-06-06T15:07:27Z</time>
      </trkpt>
      <trkpt lat="48.70738" lon="2.21108">
        <ele>124.15</ele>
        <time>2020-06-06T15:07:29Z</time>
      </trkpt>
      <trkpt lat="48.70734" lon="2.21103">
        <ele>120.78</ele>
        <time>2020-06-06T15:07:31Z</time>
      </trkpt>
      <trkpt lat="48.70733" lon="2.21099">
        <ele>120.78</ele>
        <time>2020-06-06T15:07:32Z</time>
      </trkpt>
      <trkpt lat="48.70727" lon="2.21084">
        <ele>119.82</ele>
        <time>2020-06-06T15:07:37Z</time>
      </trkpt>
      <trkpt lat="48.70728" lon="2.21084">
        <ele>120.3</ele>
        <time>2020-06-06T15:07:38Z</time>
      </trkpt>
      <trkpt lat="48.7072" lon="2.21081">
        <ele>122.22</ele>
        <time>2020-06-06T15:07:48Z</time>
      </trkpt>
      <trkpt lat="48.70709" lon="2.21082">
        <ele>104.7</ele>
      </trkpt>
      <trkpt lat="48.70702" lon="2.21077">
        <ele>102.9</ele>
      </trkpt>
      <trkpt lat="48.70692" lon="2.21073">
        <ele>100.9</ele>
      </trkpt>
      <trkpt lat="48.70674" lon="2.21059">
        <ele>98.9</ele>
      </trkpt>
      <trkpt lat="48.70672" lon="2.21089">
        <ele>95.4</ele>
      </trkpt>
      <trkpt lat="48.70672" lon="2.21109">
        <ele>99.5</ele>
      </trkpt>
      <trkpt lat="48.70675" lon="2.21127">
        <ele>100.6</ele>
      </trkpt>
      <trkpt lat="48.70676" lon="2.21147">
        <ele>99.3</ele>
      </trkpt>
      <trkpt lat="48.70676" lon="2.21169">
        <ele>96.3</ele>
      </trkpt>
      <trkpt lat="48.70666" lon="2.21164">
        <ele>92.5</ele>
      </trkpt>
      <trkpt lat="48.70657" lon="2.21165">
        <ele>91.3</ele>
      </trkpt>
      <trkpt lat="48.7065" lon="2.21175">
        <ele>90.3</ele>
      </trkpt>
      <trkpt lat="48.70649" lon="2.21184">
        <ele>89.8</ele>
      </trkpt>
      <trkpt lat="48.70649" lon="2.21193">
        <ele>89.4</ele>
      </trkpt>
      <trkpt lat="48.70647" lon="2.21201">
        <ele>89.1</ele>
      </trkpt>
      <trkpt lat="48.70643" lon="2.21227">
        <ele>88.8</ele>
      </trkpt>
      <trkpt lat="48.70646" lon="2.21212">
        <ele>88.9</ele>
      </trkpt>
      <trkpt lat="48.70642" lon="2.21214">
        <ele>88.7</ele>
      </trkpt>
      <trkpt lat="48.70644" lon="2.21218">
        <ele>88.8</ele>
      </trkpt>
      <trkpt lat="48.70644" lon="2.21221">
        <ele>88.8</ele>
      </trkpt>
      <trkpt lat="48.70644" lon="2.21224">
        <ele>88.8</ele>
      </trkpt>
      <trkpt lat="48.70642" lon="2.21226">
        <ele>88.7</ele>
      </trkpt>
      <trkpt lat="48.70641" lon="2.21229">
        <ele>88.7</ele>
      </trkpt>
      <trkpt lat="48.70638" lon="2.21232">
        <ele>88.6</ele>
      </trkpt>
      <trkpt lat="48.70636" lon="2.21235">
        <ele>88.5</ele>
      </trkpt>
      <trkpt lat="48.70635" lon="2.21238">
        <ele>88.4</ele>
      </trkpt>
      <trkpt lat="48.70633" lon="2.21241">
        <ele>88.3</ele>
      </trkpt>
      <trkpt lat="48.70632" lon="2.21245">
        <ele>88.2</ele>
      </trkpt>
      <trkpt lat="48.70633" lon="2.2125">
        <ele>88.3</ele>
      </trkpt>
      <trkpt lat="48.70629" lon="2.21249">
        <ele>88</ele>
      </trkpt>
      <trkpt lat="48.70625" lon="2.21252">
        <ele>87.8</ele>
      </trkpt>
      <trkpt lat="48.70621" lon="2.21246">
        <ele>87.6</ele>
      </trkpt>
      <trkpt lat="48.70628" lon="2.21245">
        <ele>88</ele>
      </trkpt>
      <trkpt lat="48.70618" lon="2.21249">
        <ele>87.3</ele>
      </trkpt>
      <trkpt lat="48.70611" lon="2.21251">
        <ele>86.9</ele>
      </trkpt>
      <trkpt lat="48.70601" lon="2.21248">
        <ele>120.3</ele>
        <time>2020-06-06T15:10:31Z</time>
      </trkpt>
      <trkpt lat="48.70581" lon="2.21248">
        <ele>83.6</ele>
      </trkpt>
      <trkpt lat="48.7058" lon="2.21231">
        <ele>82.3</ele>
      </trkpt>
      <trkpt lat="48.70583" lon="2.21215">
        <ele>82</ele>
      </trkpt>
      <trkpt lat="48.70584" lon="2.21192">
        <ele>86.2</ele>
      </trkpt>
      <trkpt lat="48.70587" lon="2.21172">
        <ele>85</ele>
      </trkpt>
      <trkpt lat="48.70588" lon="2.2115">
        <ele>85.7</ele>
      </trkpt>
      <trkpt lat="48.70588" lon="2.2113">
        <ele>86.1</ele>
      </trkpt>
      <trkpt lat="48.7059" lon="2.2109">
        <ele>83.8</ele>
      </trkpt>
      <trkpt lat="48.70576" lon="2.21088">
        <ele>81.6</ele>
      </trkpt>
      <trkpt lat="48.70554" lon="2.21093">
        <ele>80.7</ele>
      </trkpt>
      <trkpt lat="48.70531" lon="2.21091">
        <ele>79.7</ele>
      </trkpt>
      <trkpt lat="48.70516" lon="2.21089">
        <ele>78.8</ele>
      </trkpt>
      <trkpt lat="48.70504" lon="2.21089">
        <ele>77.9</ele>
      </trkpt>
      <trkpt lat="48.70493" lon="2.21088">
        <ele>76.4</ele>
      </trkpt>
      <trkpt lat="48.7048" lon="2.21075">
        <ele>74.2</ele>
      </trkpt>
      <trkpt lat="48.70466" lon="2.21096">
        <ele>75</ele>
      </trkpt>
      <trkpt lat="48.70443" lon="2.21099">
        <ele>74</ele>
      </trkpt>
      <trkpt lat="48.70437" lon="2.21117">
        <ele>74</ele>
      </trkpt>
      <trkpt lat="48.70428" lon="2.21129">
        <ele>73.7</ele>
      </trkpt>
      <trkpt lat="48.70418" lon="2.21138">
        <ele>73.3</ele>
      </trkpt>
      <trkpt lat="48.70418" lon="2.2115">
        <ele>72.8</ele>
      </trkpt>
      <trkpt lat="48.70418" lon="2.21166">
        <ele>71.2</ele>
      </trkpt>
      <trkpt lat="48.70417" lon="2.21189">
        <ele>72.5</ele>
      </trkpt>
      <trkpt lat="48.70411" lon="2.212">
        <ele>67.4</ele>
      </trkpt>
      <trkpt lat="48.70404" lon="2.21207">
        <ele>67</ele>
      </trkpt>
      <trkpt lat="48.70392" lon="2.21209">
        <ele>66.5</ele>
      </trkpt>
      <trkpt lat="48.70383" lon="2.21206">
        <ele>66</ele>
      </trkpt>
      <trkpt lat="48.70372" lon="2.21217">
        <ele>65.2</ele>
      </trkpt>
      <trkpt lat="48.70365" lon="2.21225">
        <ele>64.7</ele>
      </trkpt>
      <trkpt lat="48.70337" lon="2.21232">
        <ele>62.7</ele>
      </trkpt>
      <trkpt lat="48.70333" lon="2.2124">
        <ele>59.3</ele>
      </trkpt>
      <trkpt lat="48.70332" lon="2.21259">
        <ele>59.5</ele>
      </trkpt>
      <trkpt lat="48.70329" lon="2.21279">
        <ele>59.1</ele>
      </trkpt>
      <trkpt lat="48.70313" lon="2.21266">
        <ele>58.8</ele>
      </trkpt>
      <trkpt lat="48.70303" lon="2.21248">
        <ele>58.2</ele>
      </trkpt>
      <trkpt lat="48.70298" lon="2.21236">
        <ele>57.9</ele>
      </trkpt>
      <trkpt lat="48.70295" lon="2.21232">
        <ele>57.8</ele>
      </trkpt>
      <trkpt lat="48.70293" lon="2.21227">
        <ele>57.7</ele>
      </trkpt>
      <trkpt lat="48.70288" lon="2.21216">
        <ele>57.6</ele>
      </trkpt>
      <trkpt lat="48.70287" lon="2.21211">
        <ele>57.6</ele>
      </trkpt>
      <trkpt lat="48.70286" lon="2.21206">
        <ele>57.6</ele>
      </trkpt>
      <trkpt lat="48.70283" lon="2.21199">
        <ele>57.5</ele>
      </trkpt>
      <trkpt lat="48.70281" lon="2.21188">
        <ele>57.4</ele>
      </trkpt>
      <trkpt lat="48.70276" lon="2.21177">
        <ele>57</ele>
      </trkpt>
      <trkpt lat="48.70276" lon="2.21162">
        <ele>57.5</ele>
      </trkpt>
      <trkpt lat="48.70274" lon="2.21147">
        <ele>57.8</ele>
      </trkpt>
      <trkpt lat="48.70275" lon="2.21137">
        <ele>58</ele>
      </trkpt>
      <trkpt lat="48.70274" lon="2.21122">
        <ele>58.1</ele>
      </trkpt>
      <trkpt lat="48.70272" lon="2.21105">
        <ele>58</ele>
      </trkpt>
      <trkpt lat="48.70273" lon="2.21089">
        <ele>57.9</ele>
      </trkpt>
      <trkpt lat="48.70273" lon="2.21073">
        <ele>57.8</ele>
      </trkpt>
      <trkpt lat="48.70274" lon="2.21058">
        <ele>57.9</ele>
      </trkpt>
      <trkpt lat="48.70274" lon="2.21038">
        <ele>57.7</ele>
      </trkpt>
      <trkpt lat="48.70273" lon="2.21019">
        <ele>57.2</ele>
      </trkpt>
      <trkpt lat="48.70272" lon="2.20999">
        <ele>55.7</ele>
      </trkpt>
      <trkpt lat="48.70254" lon="2.21001">
        <ele>88.58</ele>
        <time>2020-06-06T15:14:54Z</time>
      </trkpt>
      <trkpt lat="48.70226" lon="2.20991">
        <ele>88.58</ele>
        <time>2020-06-06T15:15:05Z</time>
      </trkpt>
      <trkpt lat="48.70196" lon="2.20977">
        <ele>88.1</ele>
        <time>2020-06-06T15:15:15Z</time>
      </trkpt>
      <trkpt lat="48.70159" lon="2.20963">
        <ele>88.58</ele>
        <time>2020-06-06T15:15:29Z</time>
      </trkpt>
      <trkpt lat="48.70141" lon="2.20959">
        <ele>90.02</ele>
        <time>2020-06-06T15:15:45Z</time>
      </trkpt>
      <trkpt lat="48.70137" lon="2.2096">
        <ele>91.94</ele>
        <time>2020-06-06T15:15:48Z</time>
      </trkpt>
      <trkpt lat="48.70115" lon="2.20945">
        <ele>95.31</ele>
        <time>2020-06-06T15:16:02Z</time>
      </trkpt>
      <trkpt lat="48.70092" lon="2.20925">
        <ele>98.19</ele>
        <time>2020-06-06T15:16:20Z</time>
      </trkpt>
      <trkpt lat="48.70075" lon="2.20909">
        <ele>100.11</ele>
        <time>2020-06-06T15:16:37Z</time>
      </trkpt>
      <trkpt lat="48.70054" lon="2.20898">
        <ele>103</ele>
        <time>2020-06-06T15:16:52Z</time>
      </trkpt>
      <trkpt lat="48.70045" lon="2.20891">
        <ele>104.92</ele>
        <time>2020-06-06T15:17:03Z</time>
      </trkpt>
      <trkpt lat="48.7004" lon="2.20888">
        <ele>104.92</ele>
        <time>2020-06-06T15:17:07Z</time>
      </trkpt>
      <trkpt lat="48.70024" lon="2.20883">
        <ele>105.4</ele>
        <time>2020-06-06T15:17:22Z</time>
      </trkpt>
      <trkpt lat="48.70007" lon="2.20885">
        <ele>70.8</ele>
      </trkpt>
      <trkpt lat="48.69983" lon="2.20876">
        <ele>75</ele>
      </trkpt>
      <trkpt lat="48.69957" lon="2.20857">
        <ele>75.8</ele>
      </trkpt>
      <trkpt lat="48.69936" lon="2.20849">
        <ele>110.69</ele>
        <time>2020-06-06T15:18:13Z</time>
      </trkpt>
      <trkpt lat="48.69931" lon="2.20849">
        <ele>110.69</ele>
        <time>2020-06-06T15:18:14Z</time>
      </trkpt>
      <trkpt lat="48.69927" lon="2.20849">
        <ele>111.17</ele>
        <time>2020-06-06T15:18:15Z</time>
      </trkpt>
      <trkpt lat="48.69924" lon="2.20848">
        <ele>111.65</ele>
        <time>2020-06-06T15:18:16Z</time>
      </trkpt>
      <trkpt lat="48.69921" lon="2.20846">
        <ele>111.65</ele>
        <time>2020-06-06T15:18:17Z</time>
      </trkpt>
      <trkpt lat="48.69919" lon="2.20843">
        <ele>111.65</ele>
        <time>2020-06-06T15:18:18Z</time>
      </trkpt>
      <trkpt lat="48.69917" lon="2.2084">
        <ele>112.13</ele>
        <time>2020-06-06T15:18:19Z</time>
      </trkpt>
      <trkpt lat="48.69914" lon="2.20838">
        <ele>112.13</ele>
        <time>2020-06-06T15:18:20Z</time>
      </trkpt>
      <trkpt lat="48.69912" lon="2.20837">
        <ele>112.13</ele>
        <time>2020-06-06T15:18:21Z</time>
      </trkpt>
      <trkpt lat="48.6991" lon="2.20836">
        <ele>112.13</ele>
        <time>2020-06-06T15:18:22Z</time>
      </trkpt>
      <trkpt lat="48.69909" lon="2.20836">
        <ele>112.13</ele>
        <time>2020-06-06T15:18:23Z</time>
      </trkpt>
      <trkpt lat="48.69908" lon="2.20836">
        <ele>111.65</ele>
        <time>2020-06-06T15:18:24Z</time>
      </trkpt>
      <trkpt lat="48.69901" lon="2.20827">
        <ele>81.7</ele>
      </trkpt>
      <trkpt lat="48.69895" lon="2.20821">
        <ele>82.5</ele>
      </trkpt>
      <trkpt lat="48.69888" lon="2.2081">
        <ele>83.4</ele>
      </trkpt>
      <trkpt lat="48.69885" lon="2.2079">
        <ele>118.38</ele>
        <time>2020-06-06T15:18:46Z</time>
      </trkpt>
      <trkpt lat="48.69875" lon="2.20762">
        <ele>120.78</ele>
        <time>2020-06-06T15:19:00Z</time>
      </trkpt>
      <trkpt lat="48.69874" lon="2.20761">
        <ele>120.3</ele>
        <time>2020-06-06T15:19:01Z</time>
      </trkpt>
      <trkpt lat="48.69872" lon="2.20756">
        <ele>120.78</ele>
        <time>2020-06-06T15:19:04Z</time>
      </trkpt>
      <trkpt lat="48.69852" lon="2.20728">
        <ele>121.26</ele>
        <time>2020-06-06T15:19:16Z</time>
      </trkpt>
      <trkpt lat="48.69837" lon="2.20691">
        <ele>88.7</ele>
      </trkpt>
      <trkpt lat="48.69824" lon="2.20681">
        <ele>122.71</ele>
        <time>2020-06-06T15:19:34Z</time>
      </trkpt>
      <trkpt lat="48.69823" lon="2.20679">
        <ele>122.71</ele>
        <time>2020-06-06T15:19:35Z</time>
      </trkpt>
      <trkpt lat="48.69815" lon="2.20654">
        <ele>123.19</ele>
        <time>2020-06-06T15:19:43Z</time>
      </trkpt>
      <trkpt lat="48.69805" lon="2.20637">
        <ele>96</ele>
      </trkpt>
      <trkpt lat="48.69792" lon="2.20621">
        <ele>96.7</ele>
      </trkpt>
      <trkpt lat="48.6978" lon="2.20612">
        <ele>97.5</ele>
      </trkpt>
      <trkpt lat="48.69771" lon="2.2062">
        <ele>97.8</ele>
      </trkpt>
      <trkpt lat="48.69755" lon="2.20618">
        <ele>98.4</ele>
      </trkpt>
      <trkpt lat="48.69737" lon="2.2061">
        <ele>104.6</ele>
      </trkpt>
      <trkpt lat="48.69707" lon="2.20604">
        <ele>132.8</ele>
        <time>2020-06-06T15:20:57Z</time>
      </trkpt>
      <trkpt lat="48.69683" lon="2.2059">
        <ele>134.24</ele>
        <time>2020-06-06T15:21:09Z</time>
      </trkpt>
      <trkpt lat="48.69661" lon="2.20557">
        <ele>136.64</ele>
        <time>2020-06-06T15:21:24Z</time>
      </trkpt>
      <trkpt lat="48.69657" lon="2.20552">
        <ele>135.68</ele>
        <time>2020-06-06T15:21:27Z</time>
      </trkpt>
      <trkpt lat="48.69653" lon="2.20549">
        <ele>135.2</ele>
        <time>2020-06-06T15:21:30Z</time>
      </trkpt>
      <trkpt lat="48.69625" lon="2.20537">
        <ele>133.28</ele>
        <time>2020-06-06T15:21:45Z</time>
      </trkpt>
      <trkpt lat="48.69609" lon="2.20506">
        <ele>133.28</ele>
        <time>2020-06-06T15:21:56Z</time>
      </trkpt>
      <trkpt lat="48.69608" lon="2.20506">
        <ele>132.8</ele>
        <time>2020-06-06T15:21:57Z</time>
      </trkpt>
      <trkpt lat="48.69589" lon="2.20454">
        <ele>132.8</ele>
        <time>2020-06-06T15:22:13Z</time>
      </trkpt>
      <trkpt lat="48.69587" lon="2.20439">
        <ele>133.28</ele>
        <time>2020-06-06T15:22:17Z</time>
      </trkpt>
      <trkpt lat="48.69585" lon="2.20432">
        <ele>133.28</ele>
        <time>2020-06-06T15:22:18Z</time>
      </trkpt>
      <trkpt lat="48.69582" lon="2.20421">
        <ele>133.28</ele>
        <time>2020-06-06T15:22:19Z</time>
      </trkpt>
      <trkpt lat="48.69547" lon="2.20414">
        <ele>136.64</ele>
        <time>2020-06-06T15:22:32Z</time>
      </trkpt>
      <trkpt lat="48.69545" lon="2.20415">
        <ele>136.64</ele>
        <time>2020-06-06T15:22:33Z</time>
      </trkpt>
      <trkpt lat="48.69537" lon="2.20421">
        <ele>139.05</ele>
        <time>2020-06-06T15:22:40Z</time>
      </trkpt>
      <trkpt lat="48.69536" lon="2.20422">
        <ele>139.53</ele>
        <time>2020-06-06T15:22:41Z</time>
      </trkpt>
      <trkpt lat="48.69534" lon="2.20423">
        <ele>139.53</ele>
        <time>2020-06-06T15:22:42Z</time>
      </trkpt>
      <trkpt lat="48.69532" lon="2.20425">
        <ele>140.01</ele>
        <time>2020-06-06T15:22:43Z</time>
      </trkpt>
      <trkpt lat="48.69531" lon="2.20426">
        <ele>140.01</ele>
        <time>2020-06-06T15:22:44Z</time>
      </trkpt>
      <trkpt lat="48.69514" lon="2.20434">
        <ele>143.37</ele>
        <time>2020-06-06T15:22:52Z</time>
      </trkpt>
      <trkpt lat="48.69496" lon="2.20442">
        <ele>146.26</ele>
        <time>2020-06-06T15:23:02Z</time>
      </trkpt>
      <trkpt lat="48.69498" lon="2.20465">
        <ele>149.14</ele>
        <time>2020-06-06T15:23:14Z</time>
      </trkpt>
      <trkpt lat="48.69498" lon="2.20469">
        <ele>150.58</ele>
        <time>2020-06-06T15:23:18Z</time>
      </trkpt>
      <trkpt lat="48.69503" lon="2.20484">
        <ele>152.03</ele>
        <time>2020-06-06T15:23:32Z</time>
      </trkpt>
      <trkpt lat="48.69499" lon="2.20507">
        <ele>155.39</ele>
        <time>2020-06-06T15:23:46Z</time>
      </trkpt>
      <trkpt lat="48.6949" lon="2.20524">
        <ele>158.27</ele>
        <time>2020-06-06T15:24:00Z</time>
      </trkpt>
      <trkpt lat="48.69482" lon="2.20537">
        <ele>160.2</ele>
        <time>2020-06-06T15:24:14Z</time>
      </trkpt>
      <trkpt lat="48.69478" lon="2.20544">
        <ele>161.16</ele>
        <time>2020-06-06T15:24:19Z</time>
      </trkpt>
      <trkpt lat="48.69467" lon="2.2056">
        <ele>163.56</ele>
        <time>2020-06-06T15:24:28Z</time>
      </trkpt>
      <trkpt lat="48.69458" lon="2.20575">
        <ele>132.2</ele>
      </trkpt>
      <trkpt lat="48.69452" lon="2.20587">
        <ele>139.7</ele>
      </trkpt>
      <trkpt lat="48.69445" lon="2.20592">
        <ele>139.9</ele>
      </trkpt>
      <trkpt lat="48.69444" lon="2.20619">
        <ele>171.25</ele>
        <time>2020-06-06T15:25:04Z</time>
      </trkpt>
      <trkpt lat="48.69435" lon="2.20616">
        <ele>141.4</ele>
      </trkpt>
      <trkpt lat="48.69429" lon="2.20627">
        <ele>142.5</ele>
      </trkpt>
      <trkpt lat="48.69416" lon="2.20642">
        <ele>145.5</ele>
      </trkpt>
      <trkpt lat="48.69388" lon="2.20664">
        <ele>173.17</ele>
        <time>2020-06-06T15:25:37Z</time>
      </trkpt>
      <trkpt lat="48.69377" lon="2.20687">
        <ele>150.7</ele>
      </trkpt>
      <trkpt lat="48.69379" lon="2.20703">
        <ele>179.42</ele>
        <time>2020-06-06T15:25:58Z</time>
      </trkpt>
      <trkpt lat="48.69377" lon="2.20713">
        <ele>151.4</ele>
      </trkpt>
      <trkpt lat="48.69374" lon="2.2073">
        <ele>179.42</ele>
        <time>2020-06-06T15:26:17Z</time>
      </trkpt>
      <trkpt lat="48.69373" lon="2.20728">
        <ele>178.94</ele>
        <time>2020-06-06T15:26:18Z</time>
      </trkpt>
      <trkpt lat="48.69352" lon="2.20716">
        <ele>178.94</ele>
        <time>2020-06-06T15:26:28Z</time>
      </trkpt>
      <trkpt lat="48.69337" lon="2.20711">
        <ele>180.87</ele>
        <time>2020-06-06T15:26:40Z</time>
      </trkpt>
      <trkpt lat="48.6933" lon="2.20704">
        <ele>182.79</ele>
        <time>2020-06-06T15:26:46Z</time>
      </trkpt>
      <trkpt lat="48.69293" lon="2.2067">
        <ele>182.79</ele>
        <time>2020-06-06T15:27:02Z</time>
      </trkpt>
      <trkpt lat="48.69291" lon="2.20669">
        <ele>182.31</ele>
        <time>2020-06-06T15:27:03Z</time>
      </trkpt>
      <trkpt lat="48.69275" lon="2.20633">
        <ele>151.8</ele>
      </trkpt>
      <trkpt lat="48.69265" lon="2.20574">
        <ele>151.6</ele>
      </trkpt>
      <trkpt lat="48.69259" lon="2.20541">
        <ele>150.4</ele>
      </trkpt>
      <trkpt lat="48.69251" lon="2.20501">
        <ele>156.4</ele>
      </trkpt>
      <trkpt lat="48.6925" lon="2.2048">
        <ele>181.35</ele>
        <time>2020-06-06T15:28:03Z</time>
      </trkpt>
      <trkpt lat="48.69249" lon="2.20467">
        <ele>157.7</ele>
      </trkpt>
      <trkpt lat="48.69241" lon="2.2044">
        <ele>157.8</ele>
      </trkpt>
      <trkpt lat="48.69266" lon="2.20412">
        <ele>152.9</ele>
      </trkpt>
      <trkpt lat="48.69276" lon="2.20371">
        <ele>177.5</ele>
        <time>2020-06-06T15:28:31Z</time>
      </trkpt>
      <trkpt lat="48.69272" lon="2.20337">
        <ele>174.62</ele>
        <time>2020-06-06T15:28:39Z</time>
      </trkpt>
      <trkpt lat="48.69254" lon="2.20329">
        <ele>174.62</ele>
        <time>2020-06-06T15:28:46Z</time>
      </trkpt>
      <trkpt lat="48.69239" lon="2.20285">
        <ele>175.1</ele>
        <time>2020-06-06T15:29:00Z</time>
      </trkpt>
      <trkpt lat="48.69238" lon="2.20278">
        <ele>174.62</ele>
        <time>2020-06-06T15:29:02Z</time>
      </trkpt>
      <trkpt lat="48.69236" lon="2.20235">
        <ele>177.02</ele>
        <time>2020-06-06T15:29:13Z</time>
      </trkpt>
      <trkpt lat="48.69234" lon="2.20188">
        <ele>176.54</ele>
        <time>2020-06-06T15:29:24Z</time>
      </trkpt>
      <trkpt lat="48.69233" lon="2.20156">
        <ele>177.5</ele>
        <time>2020-06-06T15:29:33Z</time>
      </trkpt>
      <trkpt lat="48.69221" lon="2.20113">
        <ele>177.98</ele>
        <time>2020-06-06T15:29:48Z</time>
      </trkpt>
      <trkpt lat="48.69212" lon="2.20077">
        <ele>178.46</ele>
        <time>2020-06-06T15:29:58Z</time>
      </trkpt>
      <trkpt lat="48.69212" lon="2.20069">
        <ele>178.94</ele>
        <time>2020-06-06T15:29:59Z</time>
      </trkpt>
      <trkpt lat="48.69211" lon="2.20063">
        <ele>178.46</ele>
        <time>2020-06-06T15:30:00Z</time>
      </trkpt>
      <trkpt lat="48.69199" lon="2.19998">
        <ele>178.46</ele>
        <time>2020-06-06T15:30:13Z</time>
      </trkpt>
      <trkpt lat="48.69198" lon="2.19994">
        <ele>178.94</ele>
        <time>2020-06-06T15:30:14Z</time>
      </trkpt>
      <trkpt lat="48.69173" lon="2.1997">
        <ele>176.54</ele>
        <time>2020-06-06T15:30:25Z</time>
      </trkpt>
      <trkpt lat="48.69142" lon="2.19952">
        <ele>177.02</ele>
        <time>2020-06-06T15:30:38Z</time>
      </trkpt>
      <trkpt lat="48.69124" lon="2.19943">
        <ele>176.06</ele>
        <time>2020-06-06T15:30:46Z</time>
      </trkpt>
      <trkpt lat="48.69123" lon="2.1994">
        <ele>176.54</ele>
        <time>2020-06-06T15:30:47Z</time>
      </trkpt>
      <trkpt lat="48.69122" lon="2.19939">
        <ele>176.06</ele>
        <time>2020-06-06T15:30:48Z</time>
      </trkpt>
      <trkpt lat="48.6912" lon="2.19938">
        <ele>176.06</ele>
        <time>2020-06-06T15:30:49Z</time>
      </trkpt>
      <trkpt lat="48.69118" lon="2.19936">
        <ele>176.06</ele>
        <time>2020-06-06T15:30:50Z</time>
      </trkpt>
      <trkpt lat="48.6911" lon="2.19929">
        <ele>176.06</ele>
        <time>2020-06-06T15:30:56Z</time>
      </trkpt>
      <trkpt lat="48.69102" lon="2.1992">
        <ele>175.58</ele>
        <time>2020-06-06T15:31:00Z</time>
      </trkpt>
      <trkpt lat="48.6909" lon="2.19871">
        <ele>176.06</ele>
        <time>2020-06-06T15:31:12Z</time>
      </trkpt>
      <trkpt lat="48.69085" lon="2.19828">
        <ele>175.58</ele>
        <time>2020-06-06T15:31:21Z</time>
      </trkpt>
      <trkpt lat="48.69084" lon="2.19791">
        <ele>176.54</ele>
        <time>2020-06-06T15:31:29Z</time>
      </trkpt>
      <trkpt lat="48.69086" lon="2.1978">
        <ele>176.54</ele>
        <time>2020-06-06T15:31:36Z</time>
      </trkpt>
      <trkpt lat="48.69096" lon="2.19748">
        <ele>175.58</ele>
        <time>2020-06-06T15:31:47Z</time>
      </trkpt>
      <trkpt lat="48.691" lon="2.19738">
        <ele>175.1</ele>
        <time>2020-06-06T15:31:51Z</time>
      </trkpt>
      <trkpt lat="48.69107" lon="2.19709">
        <ele>175.58</ele>
        <time>2020-06-06T15:32:06Z</time>
      </trkpt>
      <trkpt lat="48.6912" lon="2.19656">
        <ele>175.1</ele>
        <time>2020-06-06T15:32:26Z</time>
      </trkpt>
      <trkpt lat="48.69113" lon="2.19634">
        <ele>174.62</ele>
        <time>2020-06-06T15:32:53Z</time>
      </trkpt>
      <trkpt lat="48.69123" lon="2.19621">
        <ele>174.62</ele>
        <time>2020-06-06T15:33:25Z</time>
      </trkpt>
      <trkpt lat="48.69114" lon="2.19629">
        <ele>174.62</ele>
        <time>2020-06-06T15:33:54Z</time>
      </trkpt>
      <trkpt lat="48.69108" lon="2.1962">
        <ele>174.62</ele>
        <time>2020-06-06T15:34:24Z</time>
      </trkpt>
      <trkpt lat="48.69121" lon="2.1963">
        <ele>174.62</ele>
        <time>2020-06-06T15:34:55Z</time>
      </trkpt>
      <trkpt lat="48.69124" lon="2.19634">
        <ele>174.62</ele>
        <time>2020-06-06T15:35:23Z</time>
      </trkpt>
      <trkpt lat="48.6913" lon="2.19639">
        <ele>175.1</ele>
        <time>2020-06-06T15:35:52Z</time>
      </trkpt>
      <trkpt lat="48.69135" lon="2.19636">
        <ele>175.58</ele>
        <time>2020-06-06T15:36:20Z</time>
      </trkpt>
      <trkpt lat="48.69132" lon="2.19636">
        <ele>175.1</ele>
        <time>2020-06-06T15:36:46Z</time>
      </trkpt>
      <trkpt lat="48.6911" lon="2.19631">
        <ele>175.1</ele>
        <time>2020-06-06T15:37:16Z</time>
      </trkpt>
      <trkpt lat="48.69121" lon="2.19637">
        <ele>175.1</ele>
        <time>2020-06-06T15:37:39Z</time>
      </trkpt>
      <trkpt lat="48.69136" lon="2.19639">
        <ele>175.1</ele>
        <time>2020-06-06T15:38:04Z</time>
      </trkpt>
      <trkpt lat="48.69128" lon="2.19631">
        <ele>175.1</ele>
        <time>2020-06-06T15:38:30Z</time>
      </trkpt>
      <trkpt lat="48.69123" lon="2.19628">
        <ele>174.14</ele>
        <time>2020-06-06T15:38:53Z</time>
      </trkpt>
      <trkpt lat="48.69111" lon="2.19633">
        <ele>173.66</ele>
        <time>2020-06-06T15:39:19Z</time>
      </trkpt>
      <trkpt lat="48.69105" lon="2.19627">
        <ele>174.62</ele>
        <time>2020-06-06T15:39:47Z</time>
      </trkpt>
      <trkpt lat="48.6911" lon="2.19635">
        <ele>174.14</ele>
        <time>2020-06-06T15:40:15Z</time>
      </trkpt>
      <trkpt lat="48.69128" lon="2.19646">
        <ele>174.62</ele>
        <time>2020-06-06T15:40:43Z</time>
      </trkpt>
      <trkpt lat="48.69121" lon="2.19646">
        <ele>174.14</ele>
        <time>2020-06-06T15:41:07Z</time>
      </trkpt>
      <trkpt lat="48.69111" lon="2.19651">
        <ele>173.66</ele>
        <time>2020-06-06T15:41:35Z</time>
      </trkpt>
      <trkpt lat="48.69108" lon="2.19651">
        <ele>174.14</ele>
        <time>2020-06-06T15:41:58Z</time>
      </trkpt>
      <trkpt lat="48.69113" lon="2.19657">
        <ele>174.62</ele>
        <time>2020-06-06T15:42:01Z</time>
      </trkpt>
      <trkpt lat="48.69117" lon="2.19658">
        <ele>174.62</ele>
        <time>2020-06-06T15:42:02Z</time>
      </trkpt>
      <trkpt lat="48.69125" lon="2.19657">
        <ele>174.62</ele>
        <time>2020-06-06T15:42:11Z</time>
      </trkpt>
      <trkpt lat="48.69124" lon="2.1964">
        <ele>174.62</ele>
        <time>2020-06-06T15:42:21Z</time>
      </trkpt>
      <trkpt lat="48.69123" lon="2.19626">
        <ele>174.62</ele>
        <time>2020-06-06T15:42:27Z</time>
      </trkpt>
      <trkpt lat="48.69124" lon="2.19606">
        <ele>174.62</ele>
        <time>2020-06-06T15:42:30Z</time>
      </trkpt>
      <trkpt lat="48.69124" lon="2.19582">
        <ele>175.1</ele>
        <time>2020-06-06T15:42:34Z</time>
      </trkpt>
      <trkpt lat="48.69124" lon="2.19576">
        <ele>174.62</ele>
        <time>2020-06-06T15:42:36Z</time>
      </trkpt>
      <trkpt lat="48.69124" lon="2.19567">
        <ele>174.62</ele>
        <time>2020-06-06T15:42:38Z</time>
      </trkpt>
      <trkpt lat="48.69124" lon="2.19563">
        <ele>174.62</ele>
        <time>2020-06-06T15:42:40Z</time>
      </trkpt>
      <trkpt lat="48.69127" lon="2.19524">
        <ele>175.1</ele>
        <time>2020-06-06T15:42:46Z</time>
      </trkpt>
      <trkpt lat="48.69129" lon="2.19489">
        <ele>175.58</ele>
        <time>2020-06-06T15:42:52Z</time>
      </trkpt>
      <trkpt lat="48.69129" lon="2.19453">
        <ele>175.58</ele>
        <time>2020-06-06T15:43:04Z</time>
      </trkpt>
      <trkpt lat="48.69129" lon="2.1943">
        <ele>177.02</ele>
        <time>2020-06-06T15:43:17Z</time>
      </trkpt>
      <trkpt lat="48.69132" lon="2.19369">
        <ele>178.94</ele>
        <time>2020-06-06T15:43:35Z</time>
      </trkpt>
      <trkpt lat="48.69127" lon="2.1932">
        <ele>181.35</ele>
        <time>2020-06-06T15:43:48Z</time>
      </trkpt>
      <trkpt lat="48.69112" lon="2.19304">
        <ele>183.75</ele>
        <time>2020-06-06T15:44:03Z</time>
      </trkpt>
      <trkpt lat="48.69092" lon="2.19297">
        <ele>185.67</ele>
        <time>2020-06-06T15:44:16Z</time>
      </trkpt>
      <trkpt lat="48.69084" lon="2.1929">
        <ele>185.67</ele>
        <time>2020-06-06T15:44:21Z</time>
      </trkpt>
      <trkpt lat="48.6906" lon="2.1927">
        <ele>186.15</ele>
        <time>2020-06-06T15:44:33Z</time>
      </trkpt>
      <trkpt lat="48.69042" lon="2.19249">
        <ele>185.67</ele>
        <time>2020-06-06T15:44:44Z</time>
      </trkpt>
      <trkpt lat="48.6897" lon="2.19231">
        <ele>186.63</ele>
        <time>2020-06-06T15:44:58Z</time>
      </trkpt>
      <trkpt lat="48.68951" lon="2.19215">
        <ele>186.15</ele>
        <time>2020-06-06T15:45:13Z</time>
      </trkpt>
      <trkpt lat="48.68944" lon="2.19204">
        <ele>185.67</ele>
        <time>2020-06-06T15:45:20Z</time>
      </trkpt>
      <trkpt lat="48.68935" lon="2.19195">
        <ele>185.67</ele>
        <time>2020-06-06T15:45:27Z</time>
      </trkpt>
      <trkpt lat="48.68912" lon="2.19172">
        <ele>186.15</ele>
        <time>2020-06-06T15:45:41Z</time>
      </trkpt>
      <trkpt lat="48.68898" lon="2.19165">
        <ele>186.15</ele>
        <time>2020-06-06T15:45:46Z</time>
      </trkpt>
      <trkpt lat="48.68894" lon="2.1916">
        <ele>186.15</ele>
        <time>2020-06-06T15:45:48Z</time>
      </trkpt>
      <trkpt lat="48.68878" lon="2.19144">
        <ele>186.15</ele>
        <time>2020-06-06T15:45:56Z</time>
      </trkpt>
      <trkpt lat="48.68853" lon="2.19112">
        <ele>185.67</ele>
        <time>2020-06-06T15:46:09Z</time>
      </trkpt>
      <trkpt lat="48.68847" lon="2.19112">
        <ele>186.15</ele>
        <time>2020-06-06T15:46:11Z</time>
      </trkpt>
      <trkpt lat="48.68846" lon="2.19112">
        <ele>186.63</ele>
        <time>2020-06-06T15:46:12Z</time>
      </trkpt>
      <trkpt lat="48.68815" lon="2.19098">
        <ele>186.63</ele>
        <time>2020-06-06T15:46:24Z</time>
      </trkpt>
      <trkpt lat="48.68812" lon="2.19095">
        <ele>186.15</ele>
        <time>2020-06-06T15:46:26Z</time>
      </trkpt>
      <trkpt lat="48.68807" lon="2.19091">
        <ele>186.63</ele>
        <time>2020-06-06T15:46:30Z</time>
      </trkpt>
      <trkpt lat="48.68806" lon="2.1909">
        <ele>186.63</ele>
        <time>2020-06-06T15:46:31Z</time>
      </trkpt>
      <trkpt lat="48.68785" lon="2.19078">
        <ele>186.63</ele>
        <time>2020-06-06T15:46:41Z</time>
      </trkpt>
      <trkpt lat="48.68757" lon="2.19069">
        <ele>186.15</ele>
        <time>2020-06-06T15:46:52Z</time>
      </trkpt>
      <trkpt lat="48.6874" lon="2.19055">
        <ele>186.63</ele>
        <time>2020-06-06T15:47:02Z</time>
      </trkpt>
      <trkpt lat="48.68639" lon="2.19042">
        <ele>185.67</ele>
        <time>2020-06-06T15:47:13Z</time>
      </trkpt>
      <trkpt lat="48.68621" lon="2.19033">
        <ele>185.19</ele>
        <time>2020-06-06T15:47:27Z</time>
      </trkpt>
      <trkpt lat="48.68604" lon="2.19029">
        <ele>185.67</ele>
        <time>2020-06-06T15:47:40Z</time>
      </trkpt>
      <trkpt lat="48.68597" lon="2.19031">
        <ele>186.15</ele>
        <time>2020-06-06T15:47:45Z</time>
      </trkpt>
      <trkpt lat="48.68514" lon="2.19059">
        <ele>186.63</ele>
        <time>2020-06-06T15:47:56Z</time>
      </trkpt>
      <trkpt lat="48.68499" lon="2.19069">
        <ele>185.67</ele>
        <time>2020-06-06T15:48:10Z</time>
      </trkpt>
      <trkpt lat="48.6849" lon="2.1907">
        <ele>186.63</ele>
        <time>2020-06-06T15:48:13Z</time>
      </trkpt>
      <trkpt lat="48.68487" lon="2.1907">
        <ele>187.11</ele>
        <time>2020-06-06T15:48:14Z</time>
      </trkpt>
      <trkpt lat="48.68484" lon="2.19069">
        <ele>187.11</ele>
        <time>2020-06-06T15:48:15Z</time>
      </trkpt>
      <trkpt lat="48.68481" lon="2.19068">
        <ele>186.63</ele>
        <time>2020-06-06T15:48:16Z</time>
      </trkpt>
      <trkpt lat="48.68478" lon="2.19067">
        <ele>187.11</ele>
        <time>2020-06-06T15:48:17Z</time>
      </trkpt>
      <trkpt lat="48.68476" lon="2.19066">
        <ele>187.11</ele>
        <time>2020-06-06T15:48:18Z</time>
      </trkpt>
      <trkpt lat="48.68472" lon="2.19065">
        <ele>186.63</ele>
        <time>2020-06-06T15:48:19Z</time>
      </trkpt>
      <trkpt lat="48.6847" lon="2.19064">
        <ele>186.63</ele>
        <time>2020-06-06T15:48:20Z</time>
      </trkpt>
      <trkpt lat="48.68467" lon="2.19062">
        <ele>186.63</ele>
        <time>2020-06-06T15:48:21Z</time>
      </trkpt>
      <trkpt lat="48.68465" lon="2.19059">
        <ele>186.15</ele>
        <time>2020-06-06T15:48:22Z</time>
      </trkpt>
      <trkpt lat="48.68461" lon="2.19011">
        <ele>187.11</ele>
        <time>2020-06-06T15:48:35Z</time>
      </trkpt>
      <trkpt lat="48.68457" lon="2.18949">
        <ele>186.63</ele>
        <time>2020-06-06T15:48:49Z</time>
      </trkpt>
      <trkpt lat="48.68461" lon="2.18927">
        <ele>185.67</ele>
        <time>2020-06-06T15:48:54Z</time>
      </trkpt>
      <trkpt lat="48.68463" lon="2.18922">
        <ele>185.67</ele>
        <time>2020-06-06T15:48:55Z</time>
      </trkpt>
      <trkpt lat="48.68465" lon="2.18919">
        <ele>184.71</ele>
        <time>2020-06-06T15:48:56Z</time>
      </trkpt>
      <trkpt lat="48.68475" lon="2.18896">
        <ele>184.71</ele>
        <time>2020-06-06T15:49:04Z</time>
      </trkpt>
      <trkpt lat="48.68485" lon="2.18887">
        <ele>184.23</ele>
        <time>2020-06-06T15:49:09Z</time>
      </trkpt>
      <trkpt lat="48.68516" lon="2.18901">
        <ele>182.31</ele>
        <time>2020-06-06T15:49:24Z</time>
      </trkpt>
      <trkpt lat="48.68553" lon="2.18915">
        <ele>183.27</ele>
        <time>2020-06-06T15:49:38Z</time>
      </trkpt>
      <trkpt lat="48.68586" lon="2.18929">
        <ele>183.75</ele>
        <time>2020-06-06T15:49:53Z</time>
      </trkpt>
      <trkpt lat="48.68629" lon="2.1894">
        <ele>185.67</ele>
        <time>2020-06-06T15:50:09Z</time>
      </trkpt>
      <trkpt lat="48.68668" lon="2.18956">
        <ele>185.19</ele>
        <time>2020-06-06T15:50:24Z</time>
      </trkpt>
      <trkpt lat="48.68682" lon="2.18965">
        <ele>185.19</ele>
        <time>2020-06-06T15:50:32Z</time>
      </trkpt>
      <trkpt lat="48.68684" lon="2.18966">
        <ele>185.19</ele>
        <time>2020-06-06T15:50:33Z</time>
      </trkpt>
      <trkpt lat="48.68686" lon="2.18967">
        <ele>184.71</ele>
        <time>2020-06-06T15:50:34Z</time>
      </trkpt>
      <trkpt lat="48.68692" lon="2.18976">
        <ele>184.23</ele>
        <time>2020-06-06T15:50:41Z</time>
      </trkpt>
      <trkpt lat="48.68704" lon="2.18968">
        <ele>150.4</ele>
      </trkpt>
      <trkpt lat="48.68719" lon="2.18979">
        <ele>150.3</ele>
      </trkpt>
      <trkpt lat="48.68741" lon="2.18973">
        <ele>150.4</ele>
      </trkpt>
      <trkpt lat="48.68762" lon="2.1898">
        <ele>150.7</ele>
      </trkpt>
      <trkpt lat="48.68772" lon="2.18984">
        <ele>150.7</ele>
      </trkpt>
      <trkpt lat="48.68781" lon="2.18988">
        <ele>150.8</ele>
      </trkpt>
      <trkpt lat="48.68795" lon="2.18993">
        <ele>150.8</ele>
      </trkpt>
      <trkpt lat="48.68819" lon="2.19001">
        <ele>150.4</ele>
      </trkpt>
      <trkpt lat="48.68841" lon="2.19012">
        <ele>150.9</ele>
      </trkpt>
      <trkpt lat="48.68865" lon="2.19021">
        <ele>150.9</ele>
      </trkpt>
      <trkpt lat="48.68874" lon="2.19022">
        <ele>151</ele>
      </trkpt>
      <trkpt lat="48.68894" lon="2.19033">
        <ele>151.1</ele>
      </trkpt>
      <trkpt lat="48.68908" lon="2.19056">
        <ele>186.63</ele>
        <time>2020-06-06T15:52:11Z</time>
      </trkpt>
      <trkpt lat="48.68929" lon="2.1907">
        <ele>186.63</ele>
        <time>2020-06-06T15:52:20Z</time>
      </trkpt>
      <trkpt lat="48.68932" lon="2.19072">
        <ele>187.11</ele>
        <time>2020-06-06T15:52:21Z</time>
      </trkpt>
      <trkpt lat="48.68935" lon="2.19073">
        <ele>187.11</ele>
        <time>2020-06-06T15:52:22Z</time>
      </trkpt>
      <trkpt lat="48.68936" lon="2.19075">
        <ele>186.63</ele>
        <time>2020-06-06T15:52:23Z</time>
      </trkpt>
      <trkpt lat="48.68939" lon="2.19076">
        <ele>187.11</ele>
        <time>2020-06-06T15:52:24Z</time>
      </trkpt>
      <trkpt lat="48.68943" lon="2.19077">
        <ele>187.11</ele>
        <time>2020-06-06T15:52:25Z</time>
      </trkpt>
      <trkpt lat="48.68945" lon="2.19078">
        <ele>187.11</ele>
        <time>2020-06-06T15:52:26Z</time>
      </trkpt>
      <trkpt lat="48.68947" lon="2.1908">
        <ele>187.11</ele>
        <time>2020-06-06T15:52:27Z</time>
      </trkpt>
      <trkpt lat="48.68981" lon="2.19086">
        <ele>187.11</ele>
        <time>2020-06-06T15:52:38Z</time>
      </trkpt>
      <trkpt lat="48.68983" lon="2.19087">
        <ele>186.63</ele>
        <time>2020-06-06T15:52:39Z</time>
      </trkpt>
      <trkpt lat="48.68985" lon="2.19088">
        <ele>187.11</ele>
        <time>2020-06-06T15:52:40Z</time>
      </trkpt>
      <trkpt lat="48.68988" lon="2.19087">
        <ele>187.11</ele>
        <time>2020-06-06T15:52:42Z</time>
      </trkpt>
      <trkpt lat="48.68991" lon="2.19086">
        <ele>187.11</ele>
        <time>2020-06-06T15:52:43Z</time>
      </trkpt>
      <trkpt lat="48.68993" lon="2.19085">
        <ele>188.08</ele>
        <time>2020-06-06T15:52:44Z</time>
      </trkpt>
      <trkpt lat="48.68994" lon="2.19084">
        <ele>187.59</ele>
        <time>2020-06-06T15:52:45Z</time>
      </trkpt>
      <trkpt lat="48.68998" lon="2.19084">
        <ele>187.59</ele>
        <time>2020-06-06T15:52:47Z</time>
      </trkpt>
      <trkpt lat="48.69007" lon="2.19063">
        <ele>188.08</ele>
        <time>2020-06-06T15:52:57Z</time>
      </trkpt>
      <trkpt lat="48.69009" lon="2.19069">
        <ele>155</ele>
      </trkpt>
      <trkpt lat="48.69014" lon="2.19069">
        <ele>155.3</ele>
      </trkpt>
      <trkpt lat="48.69019" lon="2.19072">
        <ele>155.5</ele>
      </trkpt>
      <trkpt lat="48.69023" lon="2.19075">
        <ele>155.8</ele>
      </trkpt>
      <trkpt lat="48.6903" lon="2.19076">
        <ele>156.2</ele>
      </trkpt>
      <trkpt lat="48.69034" lon="2.19078">
        <ele>156.5</ele>
      </trkpt>
      <trkpt lat="48.69039" lon="2.1908">
        <ele>148.5</ele>
      </trkpt>
      <trkpt lat="48.69043" lon="2.19081">
        <ele>157.1</ele>
      </trkpt>
      <trkpt lat="48.69047" lon="2.19086">
        <ele>153.5</ele>
      </trkpt>
      <trkpt lat="48.6905" lon="2.19091">
        <ele>153.6</ele>
      </trkpt>
      <trkpt lat="48.69054" lon="2.19095">
        <ele>153.8</ele>
      </trkpt>
      <trkpt lat="48.69062" lon="2.19091">
        <ele>154.8</ele>
      </trkpt>
      <trkpt lat="48.69072" lon="2.19088">
        <ele>156.5</ele>
      </trkpt>
      <trkpt lat="48.69083" lon="2.19084">
        <ele>159.7</ele>
      </trkpt>
      <trkpt lat="48.69094" lon="2.19082">
        <ele>160.1</ele>
      </trkpt>
      <trkpt lat="48.691" lon="2.19082">
        <ele>160.1</ele>
      </trkpt>
      <trkpt lat="48.69105" lon="2.19077">
        <ele>160.1</ele>
      </trkpt>
      <trkpt lat="48.69111" lon="2.19076">
        <ele>160.2</ele>
      </trkpt>
      <trkpt lat="48.69116" lon="2.19072">
        <ele>160.2</ele>
      </trkpt>
      <trkpt lat="48.69122" lon="2.19071">
        <ele>160.2</ele>
      </trkpt>
      <trkpt lat="48.69126" lon="2.1907">
        <ele>160.2</ele>
      </trkpt>
      <trkpt lat="48.69127" lon="2.19062">
        <ele>160.2</ele>
      </trkpt>
      <trkpt lat="48.69126" lon="2.19049">
        <ele>160.2</ele>
      </trkpt>
      <trkpt lat="48.69125" lon="2.19039">
        <ele>160.3</ele>
      </trkpt>
      <trkpt lat="48.69126" lon="2.19027">
        <ele>160.3</ele>
      </trkpt>
      <trkpt lat="48.69126" lon="2.19013">
        <ele>160.3</ele>
      </trkpt>
      <trkpt lat="48.69125" lon="2.19001">
        <ele>160.3</ele>
      </trkpt>
      <trkpt lat="48.69126" lon="2.18984">
        <ele>160</ele>
      </trkpt>
      <trkpt lat="48.69126" lon="2.18973">
        <ele>159.9</ele>
      </trkpt>
      <trkpt lat="48.69127" lon="2.18962">
        <ele>159.8</ele>
      </trkpt>
      <trkpt lat="48.69129" lon="2.18949">
        <ele>159.7</ele>
      </trkpt>
      <trkpt lat="48.69131" lon="2.18937">
        <ele>159.6</ele>
      </trkpt>
      <trkpt lat="48.69133" lon="2.18919">
        <ele>159.5</ele>
      </trkpt>
      <trkpt lat="48.69134" lon="2.18904">
        <ele>158.7</ele>
      </trkpt>
      <trkpt lat="48.69138" lon="2.18887">
        <ele>158.6</ele>
      </trkpt>
      <trkpt lat="48.6914" lon="2.18872">
        <ele>158.5</ele>
      </trkpt>
      <trkpt lat="48.69144" lon="2.18857">
        <ele>158.4</ele>
      </trkpt>
      <trkpt lat="48.69146" lon="2.18843">
        <ele>158.3</ele>
      </trkpt>
      <trkpt lat="48.69149" lon="2.18825">
        <ele>158.4</ele>
      </trkpt>
      <trkpt lat="48.69155" lon="2.18808">
        <ele>158.6</ele>
      </trkpt>
      <trkpt lat="48.6916" lon="2.18795">
        <ele>158.8</ele>
      </trkpt>
      <trkpt lat="48.69169" lon="2.18769">
        <ele>155.3</ele>
      </trkpt>
      <trkpt lat="48.69175" lon="2.18747">
        <ele>157</ele>
      </trkpt>
      <trkpt lat="48.6918" lon="2.1874">
        <ele>155.2</ele>
      </trkpt>
      <trkpt lat="48.69187" lon="2.18717">
        <ele>152.5</ele>
      </trkpt>
      <trkpt lat="48.69187" lon="2.187">
        <ele>147</ele>
      </trkpt>
      <trkpt lat="48.69188" lon="2.18674">
        <ele>153.1</ele>
      </trkpt>
      <trkpt lat="48.69191" lon="2.18659">
        <ele>150.9</ele>
      </trkpt>
      <trkpt lat="48.6919" lon="2.18638">
        <ele>149.7</ele>
      </trkpt>
      <trkpt lat="48.69189" lon="2.18618">
        <ele>149.2</ele>
      </trkpt>
      <trkpt lat="48.69188" lon="2.18599">
        <ele>149.9</ele>
      </trkpt>
      <trkpt lat="48.69187" lon="2.18578">
        <ele>147.8</ele>
      </trkpt>
      <trkpt lat="48.69186" lon="2.18562">
        <ele>146.4</ele>
      </trkpt>
      <trkpt lat="48.69173" lon="2.18545">
        <ele>145.9</ele>
      </trkpt>
      <trkpt lat="48.69165" lon="2.18531">
        <ele>154.6</ele>
      </trkpt>
      <trkpt lat="48.69149" lon="2.1852">
        <ele>154.4</ele>
      </trkpt>
      <trkpt lat="48.69135" lon="2.18512">
        <ele>154.8</ele>
      </trkpt>
      <trkpt lat="48.69127" lon="2.18502">
        <ele>155.2</ele>
      </trkpt>
      <trkpt lat="48.69117" lon="2.18495">
        <ele>151.5</ele>
      </trkpt>
      <trkpt lat="48.69111" lon="2.1849">
        <ele>151.9</ele>
      </trkpt>
      <trkpt lat="48.69108" lon="2.18488">
        <ele>179.42</ele>
        <time>2020-06-06T15:55:32Z</time>
      </trkpt>
      <trkpt lat="48.69108" lon="2.18486">
        <ele>179.42</ele>
        <time>2020-06-06T15:55:33Z</time>
      </trkpt>
      <trkpt lat="48.69107" lon="2.18451">
        <ele>177.98</ele>
        <time>2020-06-06T15:55:47Z</time>
      </trkpt>
      <trkpt lat="48.69109" lon="2.18416">
        <ele>175.1</ele>
        <time>2020-06-06T15:55:55Z</time>
      </trkpt>
      <trkpt lat="48.69101" lon="2.18384">
        <ele>140.6</ele>
      </trkpt>
      <trkpt lat="48.69085" lon="2.1838">
        <ele>140.9</ele>
      </trkpt>
      <trkpt lat="48.69072" lon="2.18374">
        <ele>141.6</ele>
      </trkpt>
      <trkpt lat="48.69056" lon="2.18373">
        <ele>174.62</ele>
        <time>2020-06-06T15:56:33Z</time>
      </trkpt>
      <trkpt lat="48.69025" lon="2.1838">
        <ele>140.8</ele>
      </trkpt>
      <trkpt lat="48.68996" lon="2.18388">
        <ele>137.9</ele>
      </trkpt>
      <trkpt lat="48.68965" lon="2.18408">
        <ele>137.6</ele>
      </trkpt>
      <trkpt lat="48.68938" lon="2.18423">
        <ele>143.2</ele>
      </trkpt>
      <trkpt lat="48.68909" lon="2.18438">
        <ele>139.7</ele>
      </trkpt>
      <trkpt lat="48.68889" lon="2.18459">
        <ele>140.8</ele>
      </trkpt>
      <trkpt lat="48.68876" lon="2.18467">
        <ele>141.1</ele>
      </trkpt>
      <trkpt lat="48.68856" lon="2.18488">
        <ele>141.2</ele>
      </trkpt>
      <trkpt lat="48.68825" lon="2.18509">
        <ele>142.7</ele>
      </trkpt>
      <trkpt lat="48.68788" lon="2.18545">
        <ele>143.9</ele>
      </trkpt>
      <trkpt lat="48.68774" lon="2.1851">
        <ele>141.3</ele>
      </trkpt>
      <trkpt lat="48.6876" lon="2.18479">
        <ele>137</ele>
      </trkpt>
      <trkpt lat="48.68739" lon="2.1844">
        <ele>138.8</ele>
      </trkpt>
      <trkpt lat="48.68719" lon="2.1845">
        <ele>139.9</ele>
      </trkpt>
      <trkpt lat="48.6871" lon="2.18454">
        <ele>140.4</ele>
      </trkpt>
      <trkpt lat="48.68694" lon="2.18447">
        <ele>141.2</ele>
      </trkpt>
      <trkpt lat="48.68686" lon="2.18427">
        <ele>142.2</ele>
      </trkpt>
      <trkpt lat="48.68675" lon="2.18409">
        <ele>144</ele>
      </trkpt>
      <trkpt lat="48.68658" lon="2.18385">
        <ele>147.1</ele>
      </trkpt>
      <trkpt lat="48.68664" lon="2.18366">
        <ele>147.5</ele>
      </trkpt>
      <trkpt lat="48.68673" lon="2.18354">
        <ele>145</ele>
      </trkpt>
      <trkpt lat="48.68677" lon="2.1834">
        <ele>145.9</ele>
      </trkpt>
      <trkpt lat="48.6869" lon="2.18314">
        <ele>146.8</ele>
      </trkpt>
      <trkpt lat="48.68698" lon="2.18306">
        <ele>146.6</ele>
      </trkpt>
      <trkpt lat="48.68703" lon="2.18293">
        <ele>146.7</ele>
      </trkpt>
      <trkpt lat="48.68705" lon="2.18276">
        <ele>147</ele>
      </trkpt>
      <trkpt lat="48.68703" lon="2.18259">
        <ele>147.4</ele>
      </trkpt>
      <trkpt lat="48.68702" lon="2.18252">
        <ele>147.6</ele>
      </trkpt>
      <trkpt lat="48.68703" lon="2.18254">
        <ele>147.5</ele>
      </trkpt>
      <trkpt lat="48.68702" lon="2.18237">
        <ele>149.4</ele>
      </trkpt>
      <trkpt lat="48.68703" lon="2.18231">
        <ele>149.4</ele>
      </trkpt>
      <trkpt lat="48.68701" lon="2.18221">
        <ele>149.6</ele>
      </trkpt>
      <trkpt lat="48.68703" lon="2.18214">
        <ele>149.6</ele>
      </trkpt>
      <trkpt lat="48.68706" lon="2.18208">
        <ele>149.6</ele>
      </trkpt>
      <trkpt lat="48.68708" lon="2.182">
        <ele>150</ele>
      </trkpt>
      <trkpt lat="48.68708" lon="2.18188">
        <ele>149.8</ele>
      </trkpt>
      <trkpt lat="48.68712" lon="2.18177">
        <ele>149.7</ele>
      </trkpt>
      <trkpt lat="48.68711" lon="2.18169">
        <ele>149.8</ele>
      </trkpt>
      <trkpt lat="48.68712" lon="2.1816">
        <ele>150.4</ele>
      </trkpt>
      <trkpt lat="48.68714" lon="2.18152">
        <ele>150.4</ele>
      </trkpt>
      <trkpt lat="48.68715" lon="2.18145">
        <ele>150.4</ele>
      </trkpt>
      <trkpt lat="48.68718" lon="2.18134">
        <ele>150.3</ele>
      </trkpt>
      <trkpt lat="48.68718" lon="2.18124">
        <ele>150.3</ele>
      </trkpt>
      <trkpt lat="48.68721" lon="2.18115">
        <ele>150.3</ele>
      </trkpt>
      <trkpt lat="48.68723" lon="2.18103">
        <ele>150.2</ele>
      </trkpt>
      <trkpt lat="48.68727" lon="2.1809">
        <ele>150</ele>
      </trkpt>
      <trkpt lat="48.68733" lon="2.18077">
        <ele>149.9</ele>
      </trkpt>
    </trkseg>
  </trk>
</gpx>